<?xml version="1.0" encoding="UTF-8" standalone="no" ?><gpx xmlns="http://www.topografix.com/GPX/1/1" xmlns:gpxx="http://www.garmin.com/xmlschemas/GpxExtensions/v3" xmlns:wptx1="http://www.garmin.com/xmlschemas/WaypointExtension/v1" xmlns:gpxtpx="http://www.garmin.com/xmlschemas/TrackPointExtension/v1" creator="GuideVTT.com" version="1.1" xmlns:xsi="http://www.w3.org/2001/XMLSchema-instance" xsi:schemaLocation="http://www.topografix.com/GPX/1/1 http://www.topografix.com/GPX/1/1/gpx.xsd http://www.garmin.com/xmlschemas/GpxExtensions/v3 http://www8.garmin.com/xmlschemas/GpxExtensionsv3.xsd http://www.garmin.com/xmlschemas/WaypointExtension/v1 http://www8.garmin.com/xmlschemas/WaypointExtensionv1.xsd http://www.garmin.com/xmlschemas/TrackPointExtension/v1 http://www.garmin.com/xmlschemas/TrackPointExtensionv1.xsd">
<metadata><link href="http://www.garmin.com"><text>Garmin International</text></link><time>2013-06-22T15:13:50Z</time></metadata>
<trk><name>tour_du_lac_2010-04-16.gpx</name><extensions><gpxx:TrackExtension><gpxx:DisplayColor>Cyan</gpxx:DisplayColor></gpxx:TrackExtension></extensions><trkseg>
<trkpt lat="47.02529960" lon="7.02235310"><ele></ele><time>2019-8-11T16:21:25Z</time></trkpt>
<trkpt lat="47.02529960" lon="7.02235310"><ele></ele><time>2019-8-11T16:21:28Z</time></trkpt>
<trkpt lat="47.02529960" lon="7.02235310"><ele></ele><time>2019-8-11T16:21:31Z</time></trkpt>
<trkpt lat="47.02529960" lon="7.02235310"><ele></ele><time>2019-8-11T16:21:34Z</time></trkpt>
<trkpt lat="47.02529960" lon="7.02235310"><ele></ele><time>2019-8-11T16:21:37Z</time></trkpt>
<trkpt lat="47.02529960" lon="7.02235310"><ele></ele><time>2019-8-11T16:21:40Z</time></trkpt>
<trkpt lat="47.02529960" lon="7.02235310"><ele></ele><time>2019-8-11T16:21:43Z</time></trkpt>
<trkpt lat="47.02543260" lon="7.01919080"><ele></ele><time>2019-8-11T16:21:46Z</time></trkpt>
<trkpt lat="47.02604690" lon="7.01913080"><ele></ele><time>2019-8-11T16:21:49Z</time></trkpt>
<trkpt lat="47.02612740" lon="7.01915520"><ele></ele><time>2019-8-11T16:21:52Z</time></trkpt>
<trkpt lat="47.02541110" lon="7.01908350"><ele></ele><time>2019-8-11T16:21:55Z</time></trkpt>
<trkpt lat="47.02528460" lon="7.01773130"><ele></ele><time>2019-8-11T16:21:58Z</time></trkpt>
<trkpt lat="47.02538970" lon="7.01901910"><ele></ele><time>2019-8-11T16:22:1Z</time></trkpt>
<trkpt lat="47.02543260" lon="7.01931950"><ele></ele><time>2019-8-11T16:22:4Z</time></trkpt>
<trkpt lat="47.02545920" lon="7.02007930"><ele></ele><time>2019-8-11T16:22:7Z</time></trkpt>
<trkpt lat="47.02514040" lon="7.01978000"><ele></ele><time>2019-8-11T16:22:10Z</time></trkpt>
<trkpt lat="47.02504550" lon="7.01975350"><ele></ele><time>2019-8-11T16:22:13Z</time></trkpt>
<trkpt lat="47.02531360" lon="7.01958680"><ele></ele><time>2019-8-11T16:22:16Z</time></trkpt>
<trkpt lat="47.02337270" lon="7.02000620"><ele></ele><time>2019-8-11T16:22:19Z</time></trkpt>
<trkpt lat="47.02215070" lon="7.01932670"><ele></ele><time>2019-8-11T16:22:22Z</time></trkpt>
<trkpt lat="47.02172140" lon="7.01906820"><ele></ele><time>2019-8-11T16:22:25Z</time></trkpt>
<trkpt lat="47.02143890" lon="7.01880930"><ele></ele><time>2019-8-11T16:22:28Z</time></trkpt>
<trkpt lat="47.02121720" lon="7.01859070"><ele></ele><time>2019-8-11T16:22:31Z</time></trkpt>
<trkpt lat="47.02083600" lon="7.01813010"><ele></ele><time>2019-8-11T16:22:34Z</time></trkpt>
<trkpt lat="47.02033370" lon="7.01744020"><ele></ele><time>2019-8-11T16:22:37Z</time></trkpt>
<trkpt lat="47.02010690" lon="7.01712150"><ele></ele><time>2019-8-11T16:22:40Z</time></trkpt>
<trkpt lat="47.01988350" lon="7.01680660"><ele></ele><time>2019-8-11T16:22:43Z</time></trkpt>
<trkpt lat="47.01888940" lon="7.01539830"><ele></ele><time>2019-8-11T16:22:46Z</time></trkpt>
<trkpt lat="47.01826090" lon="7.01450780"><ele></ele><time>2019-8-11T16:22:49Z</time></trkpt>
<trkpt lat="47.01748460" lon="7.01340820"><ele></ele><time>2019-8-11T16:22:52Z</time></trkpt>
<trkpt lat="47.01738600" lon="7.01326850"><ele></ele><time>2019-8-11T16:22:55Z</time></trkpt>
<trkpt lat="47.01577710" lon="7.01102920"><ele></ele><time>2019-8-11T16:22:58Z</time></trkpt>
<trkpt lat="47.01443170" lon="7.00904640"><ele></ele><time>2019-8-11T16:23:1Z</time></trkpt>
<trkpt lat="47.01428390" lon="7.00883390"><ele></ele><time>2019-8-11T16:23:4Z</time></trkpt>
<trkpt lat="47.01415310" lon="7.00864550"><ele></ele><time>2019-8-11T16:23:7Z</time></trkpt>
<trkpt lat="47.01404540" lon="7.00849050"><ele></ele><time>2019-8-11T16:23:10Z</time></trkpt>
<trkpt lat="47.01399560" lon="7.00841900"><ele></ele><time>2019-8-11T16:23:13Z</time></trkpt>
<trkpt lat="47.01380470" lon="7.00811630"><ele></ele><time>2019-8-11T16:23:16Z</time></trkpt>
<trkpt lat="47.01327870" lon="7.00739630"><ele></ele><time>2019-8-11T16:23:19Z</time></trkpt>
<trkpt lat="47.01312310" lon="7.00714330"><ele></ele><time>2019-8-11T16:23:22Z</time></trkpt>
<trkpt lat="47.01307680" lon="7.00707450"><ele></ele><time>2019-8-11T16:23:25Z</time></trkpt>
<trkpt lat="47.01287000" lon="7.00677210"><ele></ele><time>2019-8-11T16:23:28Z</time></trkpt>
<trkpt lat="47.01271200" lon="7.00655730"><ele></ele><time>2019-8-11T16:23:31Z</time></trkpt>
<trkpt lat="47.01264380" lon="7.00646640"><ele></ele><time>2019-8-11T16:23:34Z</time></trkpt>
<trkpt lat="47.01232300" lon="7.00600720"><ele></ele><time>2019-8-11T16:23:37Z</time></trkpt>
<trkpt lat="47.01126440" lon="7.00451380"><ele></ele><time>2019-8-11T16:23:40Z</time></trkpt>
<trkpt lat="47.01046900" lon="7.00340030"><ele></ele><time>2019-8-11T16:23:43Z</time></trkpt>
<trkpt lat="47.00969720" lon="7.00235870"><ele></ele><time>2019-8-11T16:23:46Z</time></trkpt>
<trkpt lat="47.00962240" lon="7.00225620"><ele></ele><time>2019-8-11T16:23:49Z</time></trkpt>
<trkpt lat="47.00928350" lon="7.00164700"><ele></ele><time>2019-8-11T16:23:52Z</time></trkpt>
<trkpt lat="47.00922770" lon="7.00159110"><ele></ele><time>2019-8-11T16:23:55Z</time></trkpt>
<trkpt lat="47.00919760" lon="7.00116140"><ele></ele><time>2019-8-11T16:23:58Z</time></trkpt>
<trkpt lat="47.00921060" lon="6.99996280"><ele></ele><time>2019-8-11T16:24:1Z</time></trkpt>
<trkpt lat="47.00932040" lon="6.99944000"><ele></ele><time>2019-8-11T16:24:4Z</time></trkpt>
<trkpt lat="47.00953480" lon="6.99893510"><ele></ele><time>2019-8-11T16:24:7Z</time></trkpt>
<trkpt lat="47.00957540" lon="6.99838190"><ele></ele><time>2019-8-11T16:24:10Z</time></trkpt>
<trkpt lat="47.00957540" lon="6.99823700"><ele></ele><time>2019-8-11T16:24:13Z</time></trkpt>
<trkpt lat="47.00956180" lon="6.99811360"><ele></ele><time>2019-8-11T16:24:16Z</time></trkpt>
<trkpt lat="47.00933930" lon="6.99719670"><ele></ele><time>2019-8-11T16:24:19Z</time></trkpt>
<trkpt lat="47.00935240" lon="6.99668480"><ele></ele><time>2019-8-11T16:24:22Z</time></trkpt>
<trkpt lat="47.00945470" lon="6.99599920"><ele></ele><time>2019-8-11T16:24:25Z</time></trkpt>
<trkpt lat="47.00950680" lon="6.99565700"><ele></ele><time>2019-8-11T16:24:28Z</time></trkpt>
<trkpt lat="47.00965250" lon="6.99466090"><ele></ele><time>2019-8-11T16:24:31Z</time></trkpt>
<trkpt lat="47.01024330" lon="6.99338540"><ele></ele><time>2019-8-11T16:24:34Z</time></trkpt>
<trkpt lat="47.01133670" lon="6.99130170"><ele></ele><time>2019-8-11T16:24:37Z</time></trkpt>
<trkpt lat="47.01167820" lon="6.99065210"><ele></ele><time>2019-8-11T16:24:40Z</time></trkpt>
<trkpt lat="47.01173420" lon="6.99004860"><ele></ele><time>2019-8-11T16:24:43Z</time></trkpt>
<trkpt lat="47.01159310" lon="6.98910410"><ele></ele><time>2019-8-11T16:24:46Z</time></trkpt>
<trkpt lat="47.01155810" lon="6.98878520"><ele></ele><time>2019-8-11T16:24:49Z</time></trkpt>
<trkpt lat="47.01164080" lon="6.98848270"><ele></ele><time>2019-8-11T16:24:52Z</time></trkpt>
<trkpt lat="47.01175690" lon="6.98816930"><ele></ele><time>2019-8-11T16:24:55Z</time></trkpt>
<trkpt lat="47.01188020" lon="6.98780630"><ele></ele><time>2019-8-11T16:24:58Z</time></trkpt>
<trkpt lat="47.01193450" lon="6.98763760"><ele></ele><time>2019-8-11T16:25:1Z</time></trkpt>
<trkpt lat="47.01219120" lon="6.98756080"><ele></ele><time>2019-8-11T16:25:4Z</time></trkpt>
<trkpt lat="47.01240780" lon="6.98769090"><ele></ele><time>2019-8-11T16:25:7Z</time></trkpt>
<trkpt lat="47.01283090" lon="6.98592790"><ele></ele><time>2019-8-11T16:25:10Z</time></trkpt>
<trkpt lat="47.01295850" lon="6.98554520"><ele></ele><time>2019-8-11T16:25:13Z</time></trkpt>
<trkpt lat="47.01310890" lon="6.98496200"><ele></ele><time>2019-8-11T16:25:16Z</time></trkpt>
<trkpt lat="47.01338290" lon="6.98347310"><ele></ele><time>2019-8-11T16:25:19Z</time></trkpt>
<trkpt lat="47.01340830" lon="6.98218240"><ele></ele><time>2019-8-11T16:25:22Z</time></trkpt>
<trkpt lat="47.01338420" lon="6.98194110"><ele></ele><time>2019-8-11T16:25:25Z</time></trkpt>
<trkpt lat="47.01330860" lon="6.98114520"><ele></ele><time>2019-8-11T16:25:28Z</time></trkpt>
<trkpt lat="47.01307340" lon="6.97926070"><ele></ele><time>2019-8-11T16:25:31Z</time></trkpt>
<trkpt lat="47.01252920" lon="6.97786840"><ele></ele><time>2019-8-11T16:25:34Z</time></trkpt>
<trkpt lat="47.01104170" lon="6.97455960"><ele></ele><time>2019-8-11T16:25:37Z</time></trkpt>
<trkpt lat="47.00979280" lon="6.97183940"><ele></ele><time>2019-8-11T16:25:40Z</time></trkpt>
<trkpt lat="47.00965060" lon="6.97153550"><ele></ele><time>2019-8-11T16:25:43Z</time></trkpt>
<trkpt lat="47.00870890" lon="6.96948380"><ele></ele><time>2019-8-11T16:25:46Z</time></trkpt>
<trkpt lat="47.00745300" lon="6.96689950"><ele></ele><time>2019-8-11T16:25:49Z</time></trkpt>
<trkpt lat="47.00615680" lon="6.96435050"><ele></ele><time>2019-8-11T16:25:52Z</time></trkpt>
<trkpt lat="47.00534350" lon="6.96266060"><ele></ele><time>2019-8-11T16:25:55Z</time></trkpt>
<trkpt lat="47.00517980" lon="6.96229240"><ele></ele><time>2019-8-11T16:25:58Z</time></trkpt>
<trkpt lat="47.00517650" lon="6.96228500"><ele></ele><time>2019-8-11T16:26:1Z</time></trkpt>
<trkpt lat="47.00449880" lon="6.96094820"><ele></ele><time>2019-8-11T16:26:4Z</time></trkpt>
<trkpt lat="47.00385140" lon="6.95941080"><ele></ele><time>2019-8-11T16:26:7Z</time></trkpt>
<trkpt lat="47.00302470" lon="6.95757050"><ele></ele><time>2019-8-11T16:26:10Z</time></trkpt>
<trkpt lat="47.00299100" lon="6.95748630"><ele></ele><time>2019-8-11T16:26:13Z</time></trkpt>
<trkpt lat="47.00226880" lon="6.95683710"><ele></ele><time>2019-8-11T16:26:16Z</time></trkpt>
<trkpt lat="47.00092230" lon="6.95644080"><ele></ele><time>2019-8-11T16:26:19Z</time></trkpt>
<trkpt lat="46.99974710" lon="6.95595460"><ele></ele><time>2019-8-11T16:26:22Z</time></trkpt>
<trkpt lat="46.99896390" lon="6.95495500"><ele></ele><time>2019-8-11T16:26:25Z</time></trkpt>
<trkpt lat="46.99831550" lon="6.95347170"><ele></ele><time>2019-8-11T16:26:28Z</time></trkpt>
<trkpt lat="46.99755180" lon="6.95142700"><ele></ele><time>2019-8-11T16:26:31Z</time></trkpt>
<trkpt lat="46.99735990" lon="6.94968040"><ele></ele><time>2019-8-11T16:26:34Z</time></trkpt>
<trkpt lat="46.99730160" lon="6.94800660"><ele></ele><time>2019-8-11T16:26:37Z</time></trkpt>
<trkpt lat="46.99739620" lon="6.94675790"><ele></ele><time>2019-8-11T16:26:40Z</time></trkpt>
<trkpt lat="46.99734860" lon="6.94527020"><ele></ele><time>2019-8-11T16:26:43Z</time></trkpt>
<trkpt lat="46.99716310" lon="6.94471890"><ele></ele><time>2019-8-11T16:26:46Z</time></trkpt>
<trkpt lat="46.99707770" lon="6.94453180"><ele></ele><time>2019-8-11T16:26:49Z</time></trkpt>
<trkpt lat="46.99701770" lon="6.94440320"><ele></ele><time>2019-8-11T16:26:52Z</time></trkpt>
<trkpt lat="46.99693710" lon="6.94428980"><ele></ele><time>2019-8-11T16:26:55Z</time></trkpt>
<trkpt lat="46.99642990" lon="6.94358490"><ele></ele><time>2019-8-11T16:26:58Z</time></trkpt>
<trkpt lat="46.99612410" lon="6.94309750"><ele></ele><time>2019-8-11T16:27:1Z</time></trkpt>
<trkpt lat="46.99577490" lon="6.94181160"><ele></ele><time>2019-8-11T16:27:4Z</time></trkpt>
<trkpt lat="46.99572560" lon="6.94140820"><ele></ele><time>2019-8-11T16:27:7Z</time></trkpt>
<trkpt lat="46.99562720" lon="6.94097630"><ele></ele><time>2019-8-11T16:27:10Z</time></trkpt>
<trkpt lat="46.99539490" lon="6.94062860"><ele></ele><time>2019-8-11T16:27:13Z</time></trkpt>
<trkpt lat="46.99486790" lon="6.94013630"><ele></ele><time>2019-8-11T16:27:16Z</time></trkpt>
<trkpt lat="46.99459790" lon="6.93992610"><ele></ele><time>2019-8-11T16:27:19Z</time></trkpt>
<trkpt lat="46.99399140" lon="6.93817870"><ele></ele><time>2019-8-11T16:27:22Z</time></trkpt>
<trkpt lat="46.99326750" lon="6.93662170"><ele></ele><time>2019-8-11T16:27:25Z</time></trkpt>
<trkpt lat="46.99245230" lon="6.93474410"><ele></ele><time>2019-8-11T16:27:28Z</time></trkpt>
<trkpt lat="46.99194530" lon="6.93362660"><ele></ele><time>2019-8-11T16:27:31Z</time></trkpt>
<trkpt lat="46.99134350" lon="6.93230680"><ele></ele><time>2019-8-11T16:27:34Z</time></trkpt>
<trkpt lat="46.99115190" lon="6.93189810"><ele></ele><time>2019-8-11T16:27:37Z</time></trkpt>
<trkpt lat="46.99114320" lon="6.93187950"><ele></ele><time>2019-8-11T16:27:40Z</time></trkpt>
<trkpt lat="46.99097300" lon="6.93167680"><ele></ele><time>2019-8-11T16:27:43Z</time></trkpt>
<trkpt lat="46.99026210" lon="6.93101330"><ele></ele><time>2019-8-11T16:27:46Z</time></trkpt>
<trkpt lat="46.99001690" lon="6.93064060"><ele></ele><time>2019-8-11T16:27:49Z</time></trkpt>
<trkpt lat="46.98966750" lon="6.92985240"><ele></ele><time>2019-8-11T16:27:52Z</time></trkpt>
<trkpt lat="46.98966750" lon="6.92985240"><ele></ele><time>2019-8-11T16:27:55Z</time></trkpt>
<trkpt lat="46.98958820" lon="6.92963050"><ele></ele><time>2019-8-11T16:27:58Z</time></trkpt>
<trkpt lat="46.98951620" lon="6.92852240"><ele></ele><time>2019-8-11T16:28:1Z</time></trkpt>
<trkpt lat="46.98966260" lon="6.92790990"><ele></ele><time>2019-8-11T16:28:4Z</time></trkpt>
<trkpt lat="46.98991930" lon="6.92808750"><ele></ele><time>2019-8-11T16:28:7Z</time></trkpt>
<trkpt lat="46.99013340" lon="6.92823560"><ele></ele><time>2019-8-11T16:28:10Z</time></trkpt>
<trkpt lat="46.99030320" lon="6.92802980"><ele></ele><time>2019-8-11T16:28:13Z</time></trkpt>
<trkpt lat="46.99033750" lon="6.92791930"><ele></ele><time>2019-8-11T16:28:16Z</time></trkpt>
<trkpt lat="46.99062610" lon="6.92687640"><ele></ele><time>2019-8-11T16:28:19Z</time></trkpt>
<trkpt lat="46.99076710" lon="6.92621190"><ele></ele><time>2019-8-11T16:28:22Z</time></trkpt>
<trkpt lat="46.99071320" lon="6.92494570"><ele></ele><time>2019-8-11T16:28:25Z</time></trkpt>
<trkpt lat="46.99063780" lon="6.92468170"><ele></ele><time>2019-8-11T16:28:28Z</time></trkpt>
<trkpt lat="46.99058880" lon="6.92451030"><ele></ele><time>2019-8-11T16:28:31Z</time></trkpt>
<trkpt lat="46.99050380" lon="6.92404730"><ele></ele><time>2019-8-11T16:28:34Z</time></trkpt>
<trkpt lat="46.99045660" lon="6.92325350"><ele></ele><time>2019-8-11T16:28:37Z</time></trkpt>
<trkpt lat="46.99045660" lon="6.92325350"><ele></ele><time>2019-8-11T16:28:40Z</time></trkpt>
<trkpt lat="46.99026690" lon="6.92257460"><ele></ele><time>2019-8-11T16:28:43Z</time></trkpt>
<trkpt lat="46.98958750" lon="6.92148880"><ele></ele><time>2019-8-11T16:28:46Z</time></trkpt>
<trkpt lat="46.98896980" lon="6.92040410"><ele></ele><time>2019-8-11T16:28:49Z</time></trkpt>
<trkpt lat="46.98836260" lon="6.91897560"><ele></ele><time>2019-8-11T16:28:52Z</time></trkpt>
<trkpt lat="46.98799700" lon="6.91794280"><ele></ele><time>2019-8-11T16:28:55Z</time></trkpt>
<trkpt lat="46.98732120" lon="6.91663230"><ele></ele><time>2019-8-11T16:28:58Z</time></trkpt>
<trkpt lat="46.98690990" lon="6.91523260"><ele></ele><time>2019-8-11T16:29:1Z</time></trkpt>
<trkpt lat="46.98649920" lon="6.91389960"><ele></ele><time>2019-8-11T16:29:4Z</time></trkpt>
<trkpt lat="46.98574270" lon="6.91253850"><ele></ele><time>2019-8-11T16:29:7Z</time></trkpt>
<trkpt lat="46.98522100" lon="6.91123730"><ele></ele><time>2019-8-11T16:29:10Z</time></trkpt>
<trkpt lat="46.98458060" lon="6.90944840"><ele></ele><time>2019-8-11T16:29:13Z</time></trkpt>
<trkpt lat="46.98424070" lon="6.90837300"><ele></ele><time>2019-8-11T16:29:16Z</time></trkpt>
<trkpt lat="46.98416950" lon="6.90819030"><ele></ele><time>2019-8-11T16:29:19Z</time></trkpt>
<trkpt lat="46.98404940" lon="6.90781270"><ele></ele><time>2019-8-11T16:29:22Z</time></trkpt>
<trkpt lat="46.98346870" lon="6.90583760"><ele></ele><time>2019-8-11T16:29:25Z</time></trkpt>
<trkpt lat="46.98314660" lon="6.90481550"><ele></ele><time>2019-8-11T16:29:28Z</time></trkpt>
<trkpt lat="46.98275700" lon="6.90352100"><ele></ele><time>2019-8-11T16:29:31Z</time></trkpt>
<trkpt lat="46.98230310" lon="6.90184050"><ele></ele><time>2019-8-11T16:29:34Z</time></trkpt>
<trkpt lat="46.98187920" lon="6.90054700"><ele></ele><time>2019-8-11T16:29:37Z</time></trkpt>
<trkpt lat="46.98145420" lon="6.89906930"><ele></ele><time>2019-8-11T16:29:40Z</time></trkpt>
<trkpt lat="46.98090330" lon="6.89744150"><ele></ele><time>2019-8-11T16:29:43Z</time></trkpt>
<trkpt lat="46.98056890" lon="6.89561520"><ele></ele><time>2019-8-11T16:29:46Z</time></trkpt>
<trkpt lat="46.98035770" lon="6.89484300"><ele></ele><time>2019-8-11T16:29:49Z</time></trkpt>
<trkpt lat="46.98005360" lon="6.89357960"><ele></ele><time>2019-8-11T16:29:52Z</time></trkpt>
<trkpt lat="46.97968490" lon="6.89141080"><ele></ele><time>2019-8-11T16:29:55Z</time></trkpt>
<trkpt lat="46.97963820" lon="6.89092340"><ele></ele><time>2019-8-11T16:29:58Z</time></trkpt>
<trkpt lat="46.97943310" lon="6.88892680"><ele></ele><time>2019-8-11T16:30:1Z</time></trkpt>
<trkpt lat="46.97939780" lon="6.88876230"><ele></ele><time>2019-8-11T16:30:4Z</time></trkpt>
<trkpt lat="46.97922980" lon="6.88802860"><ele></ele><time>2019-8-11T16:30:7Z</time></trkpt>
<trkpt lat="46.97905190" lon="6.88720040"><ele></ele><time>2019-8-11T16:30:10Z</time></trkpt>
<trkpt lat="46.97878030" lon="6.88531570"><ele></ele><time>2019-8-11T16:30:13Z</time></trkpt>
<trkpt lat="46.97844030" lon="6.88367650"><ele></ele><time>2019-8-11T16:30:16Z</time></trkpt>
<trkpt lat="46.97843790" lon="6.88288210"><ele></ele><time>2019-8-11T16:30:19Z</time></trkpt>
<trkpt lat="46.97834100" lon="6.88156250"><ele></ele><time>2019-8-11T16:30:22Z</time></trkpt>
<trkpt lat="46.97821630" lon="6.88031500"><ele></ele><time>2019-8-11T16:30:25Z</time></trkpt>
<trkpt lat="46.97820680" lon="6.88018090"><ele></ele><time>2019-8-11T16:30:28Z</time></trkpt>
<trkpt lat="46.97820090" lon="6.88005450"><ele></ele><time>2019-8-11T16:30:31Z</time></trkpt>
<trkpt lat="46.97808370" lon="6.87884600"><ele></ele><time>2019-8-11T16:30:34Z</time></trkpt>
<trkpt lat="46.97787640" lon="6.87783190"><ele></ele><time>2019-8-11T16:30:37Z</time></trkpt>
<trkpt lat="46.97767400" lon="6.87725280"><ele></ele><time>2019-8-11T16:30:40Z</time></trkpt>
<trkpt lat="46.97762340" lon="6.87711100"><ele></ele><time>2019-8-11T16:30:43Z</time></trkpt>
<trkpt lat="46.97758040" lon="6.87651410"><ele></ele><time>2019-8-11T16:30:46Z</time></trkpt>
<trkpt lat="46.97709570" lon="6.87529710"><ele></ele><time>2019-8-11T16:30:49Z</time></trkpt>
<trkpt lat="46.97682530" lon="6.87466330"><ele></ele><time>2019-8-11T16:30:52Z</time></trkpt>
<trkpt lat="46.97663520" lon="6.87412700"><ele></ele><time>2019-8-11T16:30:55Z</time></trkpt>
<trkpt lat="46.97658030" lon="6.87392580"><ele></ele><time>2019-8-11T16:30:58Z</time></trkpt>
<trkpt lat="46.97653990" lon="6.87356340"><ele></ele><time>2019-8-11T16:31:1Z</time></trkpt>
<trkpt lat="46.97635510" lon="6.87341660"><ele></ele><time>2019-8-11T16:31:4Z</time></trkpt>
<trkpt lat="46.97552770" lon="6.87268640"><ele></ele><time>2019-8-11T16:31:7Z</time></trkpt>
<trkpt lat="46.97458410" lon="6.87112250"><ele></ele><time>2019-8-11T16:31:10Z</time></trkpt>
<trkpt lat="46.97400490" lon="6.87019590"><ele></ele><time>2019-8-11T16:31:13Z</time></trkpt>
<trkpt lat="46.97339450" lon="6.86999400"><ele></ele><time>2019-8-11T16:31:16Z</time></trkpt>
<trkpt lat="46.97305840" lon="6.87008050"><ele></ele><time>2019-8-11T16:31:19Z</time></trkpt>
<trkpt lat="46.97251590" lon="6.87023850"><ele></ele><time>2019-8-11T16:31:22Z</time></trkpt>
<trkpt lat="46.97222380" lon="6.87029660"><ele></ele><time>2019-8-11T16:31:25Z</time></trkpt>
<trkpt lat="46.97201600" lon="6.87032480"><ele></ele><time>2019-8-11T16:31:28Z</time></trkpt>
<trkpt lat="46.97179940" lon="6.87032490"><ele></ele><time>2019-8-11T16:31:31Z</time></trkpt>
<trkpt lat="46.97158860" lon="6.87030010"><ele></ele><time>2019-8-11T16:31:34Z</time></trkpt>
<trkpt lat="46.97149420" lon="6.87030340"><ele></ele><time>2019-8-11T16:31:37Z</time></trkpt>
<trkpt lat="46.97129810" lon="6.87035070"><ele></ele><time>2019-8-11T16:31:40Z</time></trkpt>
<trkpt lat="46.97116610" lon="6.87040330"><ele></ele><time>2019-8-11T16:31:43Z</time></trkpt>
<trkpt lat="46.97042330" lon="6.87010730"><ele></ele><time>2019-8-11T16:31:46Z</time></trkpt>
<trkpt lat="46.97022460" lon="6.87004570"><ele></ele><time>2019-8-11T16:31:49Z</time></trkpt>
<trkpt lat="46.96892050" lon="6.86986630"><ele></ele><time>2019-8-11T16:31:52Z</time></trkpt>
<trkpt lat="46.96852680" lon="6.86967370"><ele></ele><time>2019-8-11T16:31:55Z</time></trkpt>
<trkpt lat="46.96804800" lon="6.86872730"><ele></ele><time>2019-8-11T16:31:58Z</time></trkpt>
<trkpt lat="46.96793660" lon="6.86846370"><ele></ele><time>2019-8-11T16:32:1Z</time></trkpt>
<trkpt lat="46.96762610" lon="6.86773000"><ele></ele><time>2019-8-11T16:32:4Z</time></trkpt>
<trkpt lat="46.96746640" lon="6.86734610"><ele></ele><time>2019-8-11T16:32:7Z</time></trkpt>
<trkpt lat="46.96736440" lon="6.86710040"><ele></ele><time>2019-8-11T16:32:10Z</time></trkpt>
<trkpt lat="46.96727750" lon="6.86689110"><ele></ele><time>2019-8-11T16:32:13Z</time></trkpt>
<trkpt lat="46.96719550" lon="6.86669350"><ele></ele><time>2019-8-11T16:32:16Z</time></trkpt>
<trkpt lat="46.96683090" lon="6.86576670"><ele></ele><time>2019-8-11T16:32:19Z</time></trkpt>
<trkpt lat="46.96680600" lon="6.86570400"><ele></ele><time>2019-8-11T16:32:22Z</time></trkpt>
<trkpt lat="46.96654470" lon="6.86508180"><ele></ele><time>2019-8-11T16:32:25Z</time></trkpt>
<trkpt lat="46.96606080" lon="6.86459240"><ele></ele><time>2019-8-11T16:32:28Z</time></trkpt>
<trkpt lat="46.96528980" lon="6.86439300"><ele></ele><time>2019-8-11T16:32:31Z</time></trkpt>
<trkpt lat="46.96486930" lon="6.86435310"><ele></ele><time>2019-8-11T16:32:34Z</time></trkpt>
<trkpt lat="46.96453130" lon="6.86445930"><ele></ele><time>2019-8-11T16:32:37Z</time></trkpt>
<trkpt lat="46.96397810" lon="6.86486080"><ele></ele><time>2019-8-11T16:32:40Z</time></trkpt>
<trkpt lat="46.96325890" lon="6.86514620"><ele></ele><time>2019-8-11T16:32:43Z</time></trkpt>
<trkpt lat="46.96230080" lon="6.86498980"><ele></ele><time>2019-8-11T16:32:46Z</time></trkpt>
<trkpt lat="46.96167580" lon="6.86467690"><ele></ele><time>2019-8-11T16:32:49Z</time></trkpt>
<trkpt lat="46.96120980" lon="6.86428790"><ele></ele><time>2019-8-11T16:32:52Z</time></trkpt>
<trkpt lat="46.96028380" lon="6.86309440"><ele></ele><time>2019-8-11T16:32:55Z</time></trkpt>
<trkpt lat="46.95930590" lon="6.86168680"><ele></ele><time>2019-8-11T16:32:58Z</time></trkpt>
<trkpt lat="46.95799840" lon="6.85998210"><ele></ele><time>2019-8-11T16:33:1Z</time></trkpt>
<trkpt lat="46.95741620" lon="6.85937420"><ele></ele><time>2019-8-11T16:33:4Z</time></trkpt>
<trkpt lat="46.95726160" lon="6.85918090"><ele></ele><time>2019-8-11T16:33:7Z</time></trkpt>
<trkpt lat="46.95714310" lon="6.85888140"><ele></ele><time>2019-8-11T16:33:10Z</time></trkpt>
<trkpt lat="46.95692550" lon="6.85881890"><ele></ele><time>2019-8-11T16:33:13Z</time></trkpt>
<trkpt lat="46.95587100" lon="6.85757760"><ele></ele><time>2019-8-11T16:33:16Z</time></trkpt>
<trkpt lat="46.95526310" lon="6.85619150"><ele></ele><time>2019-8-11T16:33:19Z</time></trkpt>
<trkpt lat="46.95516660" lon="6.85551350"><ele></ele><time>2019-8-11T16:33:22Z</time></trkpt>
<trkpt lat="46.95531970" lon="6.85516030"><ele></ele><time>2019-8-11T16:33:25Z</time></trkpt>
<trkpt lat="46.95545870" lon="6.85481560"><ele></ele><time>2019-8-11T16:33:28Z</time></trkpt>
<trkpt lat="46.95550570" lon="6.85465110"><ele></ele><time>2019-8-11T16:33:31Z</time></trkpt>
<trkpt lat="46.95551540" lon="6.85436130"><ele></ele><time>2019-8-11T16:33:34Z</time></trkpt>
<trkpt lat="46.95546050" lon="6.85383810"><ele></ele><time>2019-8-11T16:33:37Z</time></trkpt>
<trkpt lat="46.95508370" lon="6.85204990"><ele></ele><time>2019-8-11T16:33:40Z</time></trkpt>
<trkpt lat="46.95469700" lon="6.84980220"><ele></ele><time>2019-8-11T16:33:43Z</time></trkpt>
<trkpt lat="46.95429890" lon="6.84796750"><ele></ele><time>2019-8-11T16:33:46Z</time></trkpt>
<trkpt lat="46.95397310" lon="6.84614980"><ele></ele><time>2019-8-11T16:33:49Z</time></trkpt>
<trkpt lat="46.95372230" lon="6.84526740"><ele></ele><time>2019-8-11T16:33:52Z</time></trkpt>
<trkpt lat="46.95291050" lon="6.84352740"><ele></ele><time>2019-8-11T16:33:55Z</time></trkpt>
<trkpt lat="46.95199490" lon="6.84276570"><ele></ele><time>2019-8-11T16:33:58Z</time></trkpt>
<trkpt lat="46.95161820" lon="6.84261560"><ele></ele><time>2019-8-11T16:34:1Z</time></trkpt>
<trkpt lat="46.95126710" lon="6.84245510"><ele></ele><time>2019-8-11T16:34:4Z</time></trkpt>
<trkpt lat="46.95037470" lon="6.84185880"><ele></ele><time>2019-8-11T16:34:7Z</time></trkpt>
<trkpt lat="46.94975970" lon="6.84106040"><ele></ele><time>2019-8-11T16:34:10Z</time></trkpt>
<trkpt lat="46.94935420" lon="6.84005090"><ele></ele><time>2019-8-11T16:34:13Z</time></trkpt>
<trkpt lat="46.94905690" lon="6.83919470"><ele></ele><time>2019-8-11T16:34:16Z</time></trkpt>
<trkpt lat="46.94865700" lon="6.83830260"><ele></ele><time>2019-8-11T16:34:19Z</time></trkpt>
<trkpt lat="46.94820870" lon="6.83726440"><ele></ele><time>2019-8-11T16:34:22Z</time></trkpt>
<trkpt lat="46.94800090" lon="6.83660130"><ele></ele><time>2019-8-11T16:34:25Z</time></trkpt>
<trkpt lat="46.94780010" lon="6.83575460"><ele></ele><time>2019-8-11T16:34:28Z</time></trkpt>
<trkpt lat="46.94752790" lon="6.83495760"><ele></ele><time>2019-8-11T16:34:31Z</time></trkpt>
<trkpt lat="46.94720420" lon="6.83430630"><ele></ele><time>2019-8-11T16:34:34Z</time></trkpt>
<trkpt lat="46.94677350" lon="6.83365470"><ele></ele><time>2019-8-11T16:34:37Z</time></trkpt>
<trkpt lat="46.94674930" lon="6.83361220"><ele></ele><time>2019-8-11T16:34:40Z</time></trkpt>
<trkpt lat="46.94667040" lon="6.83348000"><ele></ele><time>2019-8-11T16:34:43Z</time></trkpt>
<trkpt lat="46.94654450" lon="6.83331810"><ele></ele><time>2019-8-11T16:34:46Z</time></trkpt>
<trkpt lat="46.94640560" lon="6.83318660"><ele></ele><time>2019-8-11T16:34:49Z</time></trkpt>
<trkpt lat="46.94595470" lon="6.83262300"><ele></ele><time>2019-8-11T16:34:52Z</time></trkpt>
<trkpt lat="46.94587410" lon="6.83252210"><ele></ele><time>2019-8-11T16:34:55Z</time></trkpt>
<trkpt lat="46.94553340" lon="6.83213990"><ele></ele><time>2019-8-11T16:34:58Z</time></trkpt>
<trkpt lat="46.94487370" lon="6.83138800"><ele></ele><time>2019-8-11T16:35:1Z</time></trkpt>
<trkpt lat="46.94420410" lon="6.83063270"><ele></ele><time>2019-8-11T16:35:4Z</time></trkpt>
<trkpt lat="46.94330260" lon="6.82961500"><ele></ele><time>2019-8-11T16:35:7Z</time></trkpt>
<trkpt lat="46.94284640" lon="6.82907850"><ele></ele><time>2019-8-11T16:35:10Z</time></trkpt>
<trkpt lat="46.94269710" lon="6.82891410"><ele></ele><time>2019-8-11T16:35:13Z</time></trkpt>
<trkpt lat="46.94253740" lon="6.82859500"><ele></ele><time>2019-8-11T16:35:16Z</time></trkpt>
<trkpt lat="46.94246720" lon="6.82865660"><ele></ele><time>2019-8-11T16:35:19Z</time></trkpt>
<trkpt lat="46.94171360" lon="6.82790740"><ele></ele><time>2019-8-11T16:35:22Z</time></trkpt>
<trkpt lat="46.94082780" lon="6.82687440"><ele></ele><time>2019-8-11T16:35:25Z</time></trkpt>
<trkpt lat="46.93956530" lon="6.82529310"><ele></ele><time>2019-8-11T16:35:28Z</time></trkpt>
<trkpt lat="46.93834790" lon="6.82407850"><ele></ele><time>2019-8-11T16:35:31Z</time></trkpt>
<trkpt lat="46.93696060" lon="6.82273310"><ele></ele><time>2019-8-11T16:35:34Z</time></trkpt>
<trkpt lat="46.93688250" lon="6.82265740"><ele></ele><time>2019-8-11T16:35:37Z</time></trkpt>
<trkpt lat="46.93632570" lon="6.82211740"><ele></ele><time>2019-8-11T16:35:40Z</time></trkpt>
<trkpt lat="46.93534310" lon="6.82116440"><ele></ele><time>2019-8-11T16:35:43Z</time></trkpt>
<trkpt lat="46.93436010" lon="6.81982450"><ele></ele><time>2019-8-11T16:35:46Z</time></trkpt>
<trkpt lat="46.93386760" lon="6.81910690"><ele></ele><time>2019-8-11T16:35:49Z</time></trkpt>
<trkpt lat="46.93354110" lon="6.81859110"><ele></ele><time>2019-8-11T16:35:52Z</time></trkpt>
<trkpt lat="46.93341190" lon="6.81836970"><ele></ele><time>2019-8-11T16:35:55Z</time></trkpt>
<trkpt lat="46.93280020" lon="6.81690800"><ele></ele><time>2019-8-11T16:35:58Z</time></trkpt>
<trkpt lat="46.93246340" lon="6.81587120"><ele></ele><time>2019-8-11T16:36:1Z</time></trkpt>
<trkpt lat="46.93213790" lon="6.81552520"><ele></ele><time>2019-8-11T16:36:4Z</time></trkpt>
<trkpt lat="46.93119130" lon="6.81518230"><ele></ele><time>2019-8-11T16:36:7Z</time></trkpt>
<trkpt lat="46.93068820" lon="6.81516960"><ele></ele><time>2019-8-11T16:36:10Z</time></trkpt>
<trkpt lat="46.93045560" lon="6.81536060"><ele></ele><time>2019-8-11T16:36:13Z</time></trkpt>
<trkpt lat="46.93001600" lon="6.81514770"><ele></ele><time>2019-8-11T16:36:16Z</time></trkpt>
<trkpt lat="46.92973240" lon="6.81470860"><ele></ele><time>2019-8-11T16:36:19Z</time></trkpt>
<trkpt lat="46.92910790" lon="6.81349960"><ele></ele><time>2019-8-11T16:36:22Z</time></trkpt>
<trkpt lat="46.92895110" lon="6.81326050"><ele></ele><time>2019-8-11T16:36:25Z</time></trkpt>
<trkpt lat="46.92784830" lon="6.81243530"><ele></ele><time>2019-8-11T16:36:28Z</time></trkpt>
<trkpt lat="46.92777840" lon="6.81238870"><ele></ele><time>2019-8-11T16:36:31Z</time></trkpt>
<trkpt lat="46.92666700" lon="6.81157760"><ele></ele><time>2019-8-11T16:36:34Z</time></trkpt>
<trkpt lat="46.92551680" lon="6.81060180"><ele></ele><time>2019-8-11T16:36:37Z</time></trkpt>
<trkpt lat="46.92403790" lon="6.80959790"><ele></ele><time>2019-8-11T16:36:40Z</time></trkpt>
<trkpt lat="46.92356900" lon="6.80950640"><ele></ele><time>2019-8-11T16:36:43Z</time></trkpt>
<trkpt lat="46.92323370" lon="6.80969540"><ele></ele><time>2019-8-11T16:36:46Z</time></trkpt>
<trkpt lat="46.92256520" lon="6.80914820"><ele></ele><time>2019-8-11T16:36:49Z</time></trkpt>
<trkpt lat="46.92115950" lon="6.80799290"><ele></ele><time>2019-8-11T16:36:52Z</time></trkpt>
<trkpt lat="46.92018450" lon="6.80749880"><ele></ele><time>2019-8-11T16:36:55Z</time></trkpt>
<trkpt lat="46.91871780" lon="6.80648520"><ele></ele><time>2019-8-11T16:36:58Z</time></trkpt>
<trkpt lat="46.91670860" lon="6.80478250"><ele></ele><time>2019-8-11T16:37:1Z</time></trkpt>
<trkpt lat="46.91522200" lon="6.80307090"><ele></ele><time>2019-8-11T16:37:4Z</time></trkpt>
<trkpt lat="46.91385070" lon="6.80189320"><ele></ele><time>2019-8-11T16:37:7Z</time></trkpt>
<trkpt lat="46.91245650" lon="6.80033990"><ele></ele><time>2019-8-11T16:37:10Z</time></trkpt>
<trkpt lat="46.91150580" lon="6.79967650"><ele></ele><time>2019-8-11T16:37:13Z</time></trkpt>
<trkpt lat="46.91031540" lon="6.79882360"><ele></ele><time>2019-8-11T16:37:16Z</time></trkpt>
<trkpt lat="46.90968560" lon="6.79779000"><ele></ele><time>2019-8-11T16:37:19Z</time></trkpt>
<trkpt lat="46.90952170" lon="6.79746380"><ele></ele><time>2019-8-11T16:37:22Z</time></trkpt>
<trkpt lat="46.90932460" lon="6.79709020"><ele></ele><time>2019-8-11T16:37:25Z</time></trkpt>
<trkpt lat="46.90828320" lon="6.79550700"><ele></ele><time>2019-8-11T16:37:28Z</time></trkpt>
<trkpt lat="46.90690520" lon="6.79418790"><ele></ele><time>2019-8-11T16:37:31Z</time></trkpt>
<trkpt lat="46.90614820" lon="6.79305090"><ele></ele><time>2019-8-11T16:37:34Z</time></trkpt>
<trkpt lat="46.90502860" lon="6.79094090"><ele></ele><time>2019-8-11T16:37:37Z</time></trkpt>
<trkpt lat="46.90439870" lon="6.78965790"><ele></ele><time>2019-8-11T16:37:40Z</time></trkpt>
<trkpt lat="46.90375100" lon="6.78874110"><ele></ele><time>2019-8-11T16:37:43Z</time></trkpt>
<trkpt lat="46.90275180" lon="6.78750390"><ele></ele><time>2019-8-11T16:37:46Z</time></trkpt>
<trkpt lat="46.90211880" lon="6.78676120"><ele></ele><time>2019-8-11T16:37:49Z</time></trkpt>
<trkpt lat="46.90156870" lon="6.78620460"><ele></ele><time>2019-8-11T16:37:52Z</time></trkpt>
<trkpt lat="46.90148790" lon="6.78613630"><ele></ele><time>2019-8-11T16:37:55Z</time></trkpt>
<trkpt lat="46.90132430" lon="6.78599170"><ele></ele><time>2019-8-11T16:37:58Z</time></trkpt>
<trkpt lat="46.90013890" lon="6.78490000"><ele></ele><time>2019-8-11T16:38:1Z</time></trkpt>
<trkpt lat="46.89877730" lon="6.78354800"><ele></ele><time>2019-8-11T16:38:4Z</time></trkpt>
<trkpt lat="46.89841740" lon="6.78258270"><ele></ele><time>2019-8-11T16:38:7Z</time></trkpt>
<trkpt lat="46.89807480" lon="6.78152250"><ele></ele><time>2019-8-11T16:38:10Z</time></trkpt>
<trkpt lat="46.89728540" lon="6.78041810"><ele></ele><time>2019-8-11T16:38:13Z</time></trkpt>
<trkpt lat="46.89651840" lon="6.77972520"><ele></ele><time>2019-8-11T16:38:16Z</time></trkpt>
<trkpt lat="46.89528210" lon="6.77857120"><ele></ele><time>2019-8-11T16:38:19Z</time></trkpt>
<trkpt lat="46.89430680" lon="6.77747090"><ele></ele><time>2019-8-11T16:38:22Z</time></trkpt>
<trkpt lat="46.89363710" lon="6.77623600"><ele></ele><time>2019-8-11T16:38:25Z</time></trkpt>
<trkpt lat="46.89321160" lon="6.77493600"><ele></ele><time>2019-8-11T16:38:28Z</time></trkpt>
<trkpt lat="46.89314600" lon="6.77413320"><ele></ele><time>2019-8-11T16:38:31Z</time></trkpt>
<trkpt lat="46.89314600" lon="6.77375450"><ele></ele><time>2019-8-11T16:38:34Z</time></trkpt>
<trkpt lat="46.89312940" lon="6.77348590"><ele></ele><time>2019-8-11T16:38:37Z</time></trkpt>
<trkpt lat="46.89262800" lon="6.77263790"><ele></ele><time>2019-8-11T16:38:40Z</time></trkpt>
<trkpt lat="46.89226250" lon="6.77214020"><ele></ele><time>2019-8-11T16:38:43Z</time></trkpt>
<trkpt lat="46.89153960" lon="6.77099550"><ele></ele><time>2019-8-11T16:38:46Z</time></trkpt>
<trkpt lat="46.89098050" lon="6.76941020"><ele></ele><time>2019-8-11T16:38:49Z</time></trkpt>
<trkpt lat="46.89003170" lon="6.76815920"><ele></ele><time>2019-8-11T16:38:52Z</time></trkpt>
<trkpt lat="46.88868970" lon="6.76713060"><ele></ele><time>2019-8-11T16:38:55Z</time></trkpt>
<trkpt lat="46.88807930" lon="6.76683660"><ele></ele><time>2019-8-11T16:38:58Z</time></trkpt>
<trkpt lat="46.88674680" lon="6.76588240"><ele></ele><time>2019-8-11T16:39:1Z</time></trkpt>
<trkpt lat="46.88574970" lon="6.76456430"><ele></ele><time>2019-8-11T16:39:4Z</time></trkpt>
<trkpt lat="46.88470300" lon="6.76343720"><ele></ele><time>2019-8-11T16:39:7Z</time></trkpt>
<trkpt lat="46.88344940" lon="6.76293210"><ele></ele><time>2019-8-11T16:39:10Z</time></trkpt>
<trkpt lat="46.88166790" lon="6.76228650"><ele></ele><time>2019-8-11T16:39:13Z</time></trkpt>
<trkpt lat="46.88069690" lon="6.76160900"><ele></ele><time>2019-8-11T16:39:16Z</time></trkpt>
<trkpt lat="46.87973260" lon="6.76068000"><ele></ele><time>2019-8-11T16:39:19Z</time></trkpt>
<trkpt lat="46.87911770" lon="6.76007300"><ele></ele><time>2019-8-11T16:39:22Z</time></trkpt>
<trkpt lat="46.87884940" lon="6.75972650"><ele></ele><time>2019-8-11T16:39:25Z</time></trkpt>
<trkpt lat="46.87868360" lon="6.75963880"><ele></ele><time>2019-8-11T16:39:28Z</time></trkpt>
<trkpt lat="46.87832160" lon="6.75941810"><ele></ele><time>2019-8-11T16:39:31Z</time></trkpt>
<trkpt lat="46.87746120" lon="6.75904750"><ele></ele><time>2019-8-11T16:39:34Z</time></trkpt>
<trkpt lat="46.87617500" lon="6.75785530"><ele></ele><time>2019-8-11T16:39:37Z</time></trkpt>
<trkpt lat="46.87476040" lon="6.75629490"><ele></ele><time>2019-8-11T16:39:40Z</time></trkpt>
<trkpt lat="46.87371080" lon="6.75550680"><ele></ele><time>2019-8-11T16:39:43Z</time></trkpt>
<trkpt lat="46.87235570" lon="6.75478330"><ele></ele><time>2019-8-11T16:39:46Z</time></trkpt>
<trkpt lat="46.87190270" lon="6.75451020"><ele></ele><time>2019-8-11T16:39:49Z</time></trkpt>
<trkpt lat="46.87097810" lon="6.75409390"><ele></ele><time>2019-8-11T16:39:52Z</time></trkpt>
<trkpt lat="46.87002120" lon="6.75359120"><ele></ele><time>2019-8-11T16:39:55Z</time></trkpt>
<trkpt lat="46.86915310" lon="6.75307080"><ele></ele><time>2019-8-11T16:39:58Z</time></trkpt>
<trkpt lat="46.86834160" lon="6.75256270"><ele></ele><time>2019-8-11T16:40:1Z</time></trkpt>
<trkpt lat="46.86777980" lon="6.75213300"><ele></ele><time>2019-8-11T16:40:4Z</time></trkpt>
<trkpt lat="46.86690270" lon="6.75133180"><ele></ele><time>2019-8-11T16:40:7Z</time></trkpt>
<trkpt lat="46.86686040" lon="6.75129180"><ele></ele><time>2019-8-11T16:40:10Z</time></trkpt>
<trkpt lat="46.86651710" lon="6.75092700"><ele></ele><time>2019-8-11T16:40:13Z</time></trkpt>
<trkpt lat="46.86538940" lon="6.74950920"><ele></ele><time>2019-8-11T16:40:16Z</time></trkpt>
<trkpt lat="46.86489240" lon="6.74897900"><ele></ele><time>2019-8-11T16:40:19Z</time></trkpt>
<trkpt lat="46.86459470" lon="6.74884010"><ele></ele><time>2019-8-11T16:40:22Z</time></trkpt>
<trkpt lat="46.86416430" lon="6.74873780"><ele></ele><time>2019-8-11T16:40:25Z</time></trkpt>
<trkpt lat="46.86366970" lon="6.74848010"><ele></ele><time>2019-8-11T16:40:28Z</time></trkpt>
<trkpt lat="46.86305630" lon="6.74761030"><ele></ele><time>2019-8-11T16:40:31Z</time></trkpt>
<trkpt lat="46.86273100" lon="6.74687240"><ele></ele><time>2019-8-11T16:40:34Z</time></trkpt>
<trkpt lat="46.86244360" lon="6.74593690"><ele></ele><time>2019-8-11T16:40:37Z</time></trkpt>
<trkpt lat="46.86242850" lon="6.74587270"><ele></ele><time>2019-8-11T16:40:40Z</time></trkpt>
<trkpt lat="46.86218330" lon="6.74483520"><ele></ele><time>2019-8-11T16:40:43Z</time></trkpt>
<trkpt lat="46.86197120" lon="6.74403910"><ele></ele><time>2019-8-11T16:40:46Z</time></trkpt>
<trkpt lat="46.86168540" lon="6.74296630"><ele></ele><time>2019-8-11T16:40:49Z</time></trkpt>
<trkpt lat="46.86132460" lon="6.74161220"><ele></ele><time>2019-8-11T16:40:52Z</time></trkpt>
<trkpt lat="46.86092970" lon="6.74012970"><ele></ele><time>2019-8-11T16:40:55Z</time></trkpt>
<trkpt lat="46.86087760" lon="6.73993390"><ele></ele><time>2019-8-11T16:40:58Z</time></trkpt>
<trkpt lat="46.86080940" lon="6.73967820"><ele></ele><time>2019-8-11T16:41:1Z</time></trkpt>
<trkpt lat="46.86074750" lon="6.73944070"><ele></ele><time>2019-8-11T16:41:4Z</time></trkpt>
<trkpt lat="46.86066060" lon="6.73910440"><ele></ele><time>2019-8-11T16:41:7Z</time></trkpt>
<trkpt lat="46.86031110" lon="6.73755490"><ele></ele><time>2019-8-11T16:41:10Z</time></trkpt>
<trkpt lat="46.86031610" lon="6.73603730"><ele></ele><time>2019-8-11T16:41:13Z</time></trkpt>
<trkpt lat="46.86050550" lon="6.73396850"><ele></ele><time>2019-8-11T16:41:16Z</time></trkpt>
<trkpt lat="46.86050760" lon="6.73278480"><ele></ele><time>2019-8-11T16:41:19Z</time></trkpt>
<trkpt lat="46.86049100" lon="6.73265180"><ele></ele><time>2019-8-11T16:41:22Z</time></trkpt>
<trkpt lat="46.86039210" lon="6.73199630"><ele></ele><time>2019-8-11T16:41:25Z</time></trkpt>
<trkpt lat="46.85977830" lon="6.73075230"><ele></ele><time>2019-8-11T16:41:28Z</time></trkpt>
<trkpt lat="46.85939310" lon="6.73034900"><ele></ele><time>2019-8-11T16:41:31Z</time></trkpt>
<trkpt lat="46.85905210" lon="6.73009380"><ele></ele><time>2019-8-11T16:41:34Z</time></trkpt>
<trkpt lat="46.85897050" lon="6.73004040"><ele></ele><time>2019-8-11T16:41:37Z</time></trkpt>
<trkpt lat="46.85824820" lon="6.72950440"><ele></ele><time>2019-8-11T16:41:40Z</time></trkpt>
<trkpt lat="46.85816860" lon="6.72942490"><ele></ele><time>2019-8-11T16:41:43Z</time></trkpt>
<trkpt lat="46.85747190" lon="6.72838370"><ele></ele><time>2019-8-11T16:41:46Z</time></trkpt>
<trkpt lat="46.85695430" lon="6.72637230"><ele></ele><time>2019-8-11T16:41:49Z</time></trkpt>
<trkpt lat="46.85681020" lon="6.72577000"><ele></ele><time>2019-8-11T16:41:52Z</time></trkpt>
<trkpt lat="46.85653270" lon="6.72522710"><ele></ele><time>2019-8-11T16:41:55Z</time></trkpt>
<trkpt lat="46.85598700" lon="6.72451900"><ele></ele><time>2019-8-11T16:41:58Z</time></trkpt>
<trkpt lat="46.85588700" lon="6.72440640"><ele></ele><time>2019-8-11T16:42:1Z</time></trkpt>
<trkpt lat="46.85525110" lon="6.72377060"><ele></ele><time>2019-8-11T16:42:4Z</time></trkpt>
<trkpt lat="46.85514730" lon="6.72366990"><ele></ele><time>2019-8-11T16:42:7Z</time></trkpt>
<trkpt lat="46.85435060" lon="6.72292470"><ele></ele><time>2019-8-11T16:42:10Z</time></trkpt>
<trkpt lat="46.85391030" lon="6.72257090"><ele></ele><time>2019-8-11T16:42:13Z</time></trkpt>
<trkpt lat="46.85270240" lon="6.72150100"><ele></ele><time>2019-8-11T16:42:16Z</time></trkpt>
<trkpt lat="46.85196810" lon="6.72025690"><ele></ele><time>2019-8-11T16:42:19Z</time></trkpt>
<trkpt lat="46.85193080" lon="6.72015830"><ele></ele><time>2019-8-11T16:42:22Z</time></trkpt>
<trkpt lat="46.85122050" lon="6.71875830"><ele></ele><time>2019-8-11T16:42:25Z</time></trkpt>
<trkpt lat="46.85026000" lon="6.71746530"><ele></ele><time>2019-8-11T16:42:28Z</time></trkpt>
<trkpt lat="46.84968260" lon="6.71612240"><ele></ele><time>2019-8-11T16:42:31Z</time></trkpt>
<trkpt lat="46.84886030" lon="6.71396420"><ele></ele><time>2019-8-11T16:42:34Z</time></trkpt>
<trkpt lat="46.84858390" lon="6.71259410"><ele></ele><time>2019-8-11T16:42:37Z</time></trkpt>
<trkpt lat="46.84822610" lon="6.71151870"><ele></ele><time>2019-8-11T16:42:40Z</time></trkpt>
<trkpt lat="46.84819530" lon="6.71146310"><ele></ele><time>2019-8-11T16:42:43Z</time></trkpt>
<trkpt lat="46.84786030" lon="6.71080250"><ele></ele><time>2019-8-11T16:42:46Z</time></trkpt>
<trkpt lat="46.84782740" lon="6.71052220"><ele></ele><time>2019-8-11T16:42:49Z</time></trkpt>
<trkpt lat="46.84778560" lon="6.71053600"><ele></ele><time>2019-8-11T16:42:52Z</time></trkpt>
<trkpt lat="46.84706240" lon="6.70894580"><ele></ele><time>2019-8-11T16:42:55Z</time></trkpt>
<trkpt lat="46.84675140" lon="6.70811800"><ele></ele><time>2019-8-11T16:42:58Z</time></trkpt>
<trkpt lat="46.84654560" lon="6.70707300"><ele></ele><time>2019-8-11T16:43:1Z</time></trkpt>
<trkpt lat="46.84647950" lon="6.70656050"><ele></ele><time>2019-8-11T16:43:4Z</time></trkpt>
<trkpt lat="46.84645410" lon="6.70539550"><ele></ele><time>2019-8-11T16:43:7Z</time></trkpt>
<trkpt lat="46.84646940" lon="6.70432280"><ele></ele><time>2019-8-11T16:43:10Z</time></trkpt>
<trkpt lat="46.84630460" lon="6.70312120"><ele></ele><time>2019-8-11T16:43:13Z</time></trkpt>
<trkpt lat="46.84584910" lon="6.70144140"><ele></ele><time>2019-8-11T16:43:16Z</time></trkpt>
<trkpt lat="46.84535510" lon="6.69938520"><ele></ele><time>2019-8-11T16:43:19Z</time></trkpt>
<trkpt lat="46.84519490" lon="6.69848350"><ele></ele><time>2019-8-11T16:43:22Z</time></trkpt>
<trkpt lat="46.84510080" lon="6.69812660"><ele></ele><time>2019-8-11T16:43:25Z</time></trkpt>
<trkpt lat="46.84442370" lon="6.69657030"><ele></ele><time>2019-8-11T16:43:28Z</time></trkpt>
<trkpt lat="46.84361590" lon="6.69522190"><ele></ele><time>2019-8-11T16:43:31Z</time></trkpt>
<trkpt lat="46.84289890" lon="6.69406390"><ele></ele><time>2019-8-11T16:43:34Z</time></trkpt>
<trkpt lat="46.84163400" lon="6.69212310"><ele></ele><time>2019-8-11T16:43:37Z</time></trkpt>
<trkpt lat="46.84135420" lon="6.69169010"><ele></ele><time>2019-8-11T16:43:40Z</time></trkpt>
<trkpt lat="46.84107120" lon="6.69126320"><ele></ele><time>2019-8-11T16:43:43Z</time></trkpt>
<trkpt lat="46.84004160" lon="6.69001270"><ele></ele><time>2019-8-11T16:43:46Z</time></trkpt>
<trkpt lat="46.83869560" lon="6.68876710"><ele></ele><time>2019-8-11T16:43:49Z</time></trkpt>
<trkpt lat="46.83841130" lon="6.68850640"><ele></ele><time>2019-8-11T16:43:52Z</time></trkpt>
<trkpt lat="46.83828230" lon="6.68840510"><ele></ele><time>2019-8-11T16:43:55Z</time></trkpt>
<trkpt lat="46.83742520" lon="6.68769860"><ele></ele><time>2019-8-11T16:43:58Z</time></trkpt>
<trkpt lat="46.83733610" lon="6.68762440"><ele></ele><time>2019-8-11T16:44:1Z</time></trkpt>
<trkpt lat="46.83696190" lon="6.68731860"><ele></ele><time>2019-8-11T16:44:4Z</time></trkpt>
<trkpt lat="46.83637580" lon="6.68685310"><ele></ele><time>2019-8-11T16:44:7Z</time></trkpt>
<trkpt lat="46.83627800" lon="6.68677430"><ele></ele><time>2019-8-11T16:44:10Z</time></trkpt>
<trkpt lat="46.83531020" lon="6.68574510"><ele></ele><time>2019-8-11T16:44:13Z</time></trkpt>
<trkpt lat="46.83429820" lon="6.68399370"><ele></ele><time>2019-8-11T16:44:16Z</time></trkpt>
<trkpt lat="46.83399430" lon="6.68326810"><ele></ele><time>2019-8-11T16:44:19Z</time></trkpt>
<trkpt lat="46.83368680" lon="6.68251990"><ele></ele><time>2019-8-11T16:44:22Z</time></trkpt>
<trkpt lat="46.83368680" lon="6.68251990"><ele></ele><time>2019-8-11T16:44:25Z</time></trkpt>
<trkpt lat="46.83297270" lon="6.68094140"><ele></ele><time>2019-8-11T16:44:28Z</time></trkpt>
<trkpt lat="46.83192790" lon="6.67950590"><ele></ele><time>2019-8-11T16:44:31Z</time></trkpt>
<trkpt lat="46.83138330" lon="6.67819770"><ele></ele><time>2019-8-11T16:44:34Z</time></trkpt>
<trkpt lat="46.83128950" lon="6.67791560"><ele></ele><time>2019-8-11T16:44:37Z</time></trkpt>
<trkpt lat="46.83066230" lon="6.67694860"><ele></ele><time>2019-8-11T16:44:40Z</time></trkpt>
<trkpt lat="46.83056630" lon="6.67684650"><ele></ele><time>2019-8-11T16:44:43Z</time></trkpt>
<trkpt lat="46.82950260" lon="6.67573930"><ele></ele><time>2019-8-11T16:44:46Z</time></trkpt>
<trkpt lat="46.82836460" lon="6.67464410"><ele></ele><time>2019-8-11T16:44:49Z</time></trkpt>
<trkpt lat="46.82785160" lon="6.67401360"><ele></ele><time>2019-8-11T16:44:52Z</time></trkpt>
<trkpt lat="46.82774310" lon="6.67385100"><ele></ele><time>2019-8-11T16:44:55Z</time></trkpt>
<trkpt lat="46.82751150" lon="6.67341520"><ele></ele><time>2019-8-11T16:44:58Z</time></trkpt>
<trkpt lat="46.82668940" lon="6.67228180"><ele></ele><time>2019-8-11T16:45:1Z</time></trkpt>
<trkpt lat="46.82566100" lon="6.67095320"><ele></ele><time>2019-8-11T16:45:4Z</time></trkpt>
<trkpt lat="46.82449260" lon="6.66938680"><ele></ele><time>2019-8-11T16:45:7Z</time></trkpt>
<trkpt lat="46.82375290" lon="6.66816970"><ele></ele><time>2019-8-11T16:45:10Z</time></trkpt>
<trkpt lat="46.82296790" lon="6.66666090"><ele></ele><time>2019-8-11T16:45:13Z</time></trkpt>
<trkpt lat="46.82214950" lon="6.66498960"><ele></ele><time>2019-8-11T16:45:16Z</time></trkpt>
<trkpt lat="46.82144030" lon="6.66278980"><ele></ele><time>2019-8-11T16:45:19Z</time></trkpt>
<trkpt lat="46.82087240" lon="6.66102290"><ele></ele><time>2019-8-11T16:45:22Z</time></trkpt>
<trkpt lat="46.82081220" lon="6.66089060"><ele></ele><time>2019-8-11T16:45:25Z</time></trkpt>
<trkpt lat="46.82057640" lon="6.66043490"><ele></ele><time>2019-8-11T16:45:28Z</time></trkpt>
<trkpt lat="46.81948130" lon="6.65859960"><ele></ele><time>2019-8-11T16:45:31Z</time></trkpt>
<trkpt lat="46.81863330" lon="6.65763060"><ele></ele><time>2019-8-11T16:45:34Z</time></trkpt>
<trkpt lat="46.81759630" lon="6.65627830"><ele></ele><time>2019-8-11T16:45:37Z</time></trkpt>
<trkpt lat="46.81644520" lon="6.65447620"><ele></ele><time>2019-8-11T16:45:40Z</time></trkpt>
<trkpt lat="46.81574960" lon="6.65320090"><ele></ele><time>2019-8-11T16:45:43Z</time></trkpt>
<trkpt lat="46.81510250" lon="6.65228400"><ele></ele><time>2019-8-11T16:45:46Z</time></trkpt>
<trkpt lat="46.81433900" lon="6.65192560"><ele></ele><time>2019-8-11T16:45:49Z</time></trkpt>
<trkpt lat="46.81333630" lon="6.65163370"><ele></ele><time>2019-8-11T16:45:52Z</time></trkpt>
<trkpt lat="46.81246330" lon="6.65066990"><ele></ele><time>2019-8-11T16:45:55Z</time></trkpt>
<trkpt lat="46.81217840" lon="6.65024370"><ele></ele><time>2019-8-11T16:45:58Z</time></trkpt>
<trkpt lat="46.81195560" lon="6.64986080"><ele></ele><time>2019-8-11T16:46:1Z</time></trkpt>
<trkpt lat="46.81171340" lon="6.64932980"><ele></ele><time>2019-8-11T16:46:4Z</time></trkpt>
<trkpt lat="46.81110390" lon="6.64839030"><ele></ele><time>2019-8-11T16:46:7Z</time></trkpt>
<trkpt lat="46.81031400" lon="6.64717400"><ele></ele><time>2019-8-11T16:46:10Z</time></trkpt>
<trkpt lat="46.80934160" lon="6.64585800"><ele></ele><time>2019-8-11T16:46:13Z</time></trkpt>
<trkpt lat="46.80897350" lon="6.64549000"><ele></ele><time>2019-8-11T16:46:16Z</time></trkpt>
<trkpt lat="46.80841190" lon="6.64482900"><ele></ele><time>2019-8-11T16:46:19Z</time></trkpt>
<trkpt lat="46.80834350" lon="6.64473990"><ele></ele><time>2019-8-11T16:46:22Z</time></trkpt>
<trkpt lat="46.80821330" lon="6.64457020"><ele></ele><time>2019-8-11T16:46:25Z</time></trkpt>
<trkpt lat="46.80808960" lon="6.64441080"><ele></ele><time>2019-8-11T16:46:28Z</time></trkpt>
<trkpt lat="46.80795830" lon="6.64424290"><ele></ele><time>2019-8-11T16:46:31Z</time></trkpt>
<trkpt lat="46.80768330" lon="6.64389070"><ele></ele><time>2019-8-11T16:46:34Z</time></trkpt>
<trkpt lat="46.80748660" lon="6.64363270"><ele></ele><time>2019-8-11T16:46:37Z</time></trkpt>
<trkpt lat="46.80735100" lon="6.64346320"><ele></ele><time>2019-8-11T16:46:40Z</time></trkpt>
<trkpt lat="46.80678590" lon="6.64251550"><ele></ele><time>2019-8-11T16:46:43Z</time></trkpt>
<trkpt lat="46.80607170" lon="6.64065840"><ele></ele><time>2019-8-11T16:46:46Z</time></trkpt>
<trkpt lat="46.80511160" lon="6.63816310"><ele></ele><time>2019-8-11T16:46:49Z</time></trkpt>
<trkpt lat="46.80387090" lon="6.63527070"><ele></ele><time>2019-8-11T16:46:52Z</time></trkpt>
<trkpt lat="46.80281200" lon="6.63324550"><ele></ele><time>2019-8-11T16:46:55Z</time></trkpt>
<trkpt lat="46.80149340" lon="6.63096330"><ele></ele><time>2019-8-11T16:46:58Z</time></trkpt>
<trkpt lat="46.80024620" lon="6.62932990"><ele></ele><time>2019-8-11T16:47:1Z</time></trkpt>
<trkpt lat="46.79881890" lon="6.62822680"><ele></ele><time>2019-8-11T16:47:4Z</time></trkpt>
<trkpt lat="46.79780820" lon="6.62810850"><ele></ele><time>2019-8-11T16:47:7Z</time></trkpt>
<trkpt lat="46.79599800" lon="6.62834400"><ele></ele><time>2019-8-11T16:47:10Z</time></trkpt>
<trkpt lat="46.79577940" lon="6.62836070"><ele></ele><time>2019-8-11T16:47:13Z</time></trkpt>
<trkpt lat="46.79445840" lon="6.62804810"><ele></ele><time>2019-8-11T16:47:16Z</time></trkpt>
<trkpt lat="46.79282640" lon="6.62769560"><ele></ele><time>2019-8-11T16:47:19Z</time></trkpt>
<trkpt lat="46.79181180" lon="6.62787360"><ele></ele><time>2019-8-11T16:47:22Z</time></trkpt>
<trkpt lat="46.79096170" lon="6.62845270"><ele></ele><time>2019-8-11T16:47:25Z</time></trkpt>
<trkpt lat="46.78989780" lon="6.62923650"><ele></ele><time>2019-8-11T16:47:28Z</time></trkpt>
<trkpt lat="46.78892050" lon="6.62991920"><ele></ele><time>2019-8-11T16:47:31Z</time></trkpt>
<trkpt lat="46.78871810" lon="6.63006540"><ele></ele><time>2019-8-11T16:47:34Z</time></trkpt>
<trkpt lat="46.78870900" lon="6.63007180"><ele></ele><time>2019-8-11T16:47:37Z</time></trkpt>
<trkpt lat="46.78849720" lon="6.63022420"><ele></ele><time>2019-8-11T16:47:40Z</time></trkpt>
<trkpt lat="46.78850920" lon="6.63052230"><ele></ele><time>2019-8-11T16:47:43Z</time></trkpt>
<trkpt lat="46.78879650" lon="6.63138710"><ele></ele><time>2019-8-11T16:47:46Z</time></trkpt>
<trkpt lat="46.78883020" lon="6.63148560"><ele></ele><time>2019-8-11T16:47:49Z</time></trkpt>
<trkpt lat="46.78928600" lon="6.63279920"><ele></ele><time>2019-8-11T16:47:52Z</time></trkpt>
<trkpt lat="46.78909640" lon="6.63326700"><ele></ele><time>2019-8-11T16:47:55Z</time></trkpt>
<trkpt lat="46.78813460" lon="6.63396060"><ele></ele><time>2019-8-11T16:47:58Z</time></trkpt>
<trkpt lat="46.78727260" lon="6.63458210"><ele></ele><time>2019-8-11T16:48:1Z</time></trkpt>
<trkpt lat="46.78706580" lon="6.63473130"><ele></ele><time>2019-8-11T16:48:4Z</time></trkpt>
<trkpt lat="46.78670940" lon="6.63496630"><ele></ele><time>2019-8-11T16:48:7Z</time></trkpt>
<trkpt lat="46.78604000" lon="6.63549060"><ele></ele><time>2019-8-11T16:48:10Z</time></trkpt>
<trkpt lat="46.78567110" lon="6.63577130"><ele></ele><time>2019-8-11T16:48:13Z</time></trkpt>
<trkpt lat="46.78554370" lon="6.63586820"><ele></ele><time>2019-8-11T16:48:16Z</time></trkpt>
<trkpt lat="46.78519250" lon="6.63614990"><ele></ele><time>2019-8-11T16:48:19Z</time></trkpt>
<trkpt lat="46.78511810" lon="6.63640450"><ele></ele><time>2019-8-11T16:48:22Z</time></trkpt>
<trkpt lat="46.78500190" lon="6.63711370"><ele></ele><time>2019-8-11T16:48:25Z</time></trkpt>
<trkpt lat="46.78497790" lon="6.63726570"><ele></ele><time>2019-8-11T16:48:28Z</time></trkpt>
<trkpt lat="46.78493080" lon="6.63761840"><ele></ele><time>2019-8-11T16:48:31Z</time></trkpt>
<trkpt lat="46.78477350" lon="6.63864380"><ele></ele><time>2019-8-11T16:48:34Z</time></trkpt>
<trkpt lat="46.78457970" lon="6.63992820"><ele></ele><time>2019-8-11T16:48:37Z</time></trkpt>
<trkpt lat="46.78432930" lon="6.64166560"><ele></ele><time>2019-8-11T16:48:40Z</time></trkpt>
<trkpt lat="46.78421620" lon="6.64246360"><ele></ele><time>2019-8-11T16:48:43Z</time></trkpt>
<trkpt lat="46.78419140" lon="6.64263910"><ele></ele><time>2019-8-11T16:48:46Z</time></trkpt>
<trkpt lat="46.78386810" lon="6.64376040"><ele></ele><time>2019-8-11T16:48:49Z</time></trkpt>
<trkpt lat="46.78334510" lon="6.64472160"><ele></ele><time>2019-8-11T16:48:52Z</time></trkpt>
<trkpt lat="46.78291800" lon="6.64562070"><ele></ele><time>2019-8-11T16:48:55Z</time></trkpt>
<trkpt lat="46.78288340" lon="6.64571820"><ele></ele><time>2019-8-11T16:48:58Z</time></trkpt>
<trkpt lat="46.78249200" lon="6.64683260"><ele></ele><time>2019-8-11T16:49:1Z</time></trkpt>
<trkpt lat="46.78158120" lon="6.64929710"><ele></ele><time>2019-8-11T16:49:4Z</time></trkpt>
<trkpt lat="46.78132410" lon="6.65002140"><ele></ele><time>2019-8-11T16:49:7Z</time></trkpt>
<trkpt lat="46.78061850" lon="6.65193000"><ele></ele><time>2019-8-11T16:49:10Z</time></trkpt>
<trkpt lat="46.78003790" lon="6.65352140"><ele></ele><time>2019-8-11T16:49:13Z</time></trkpt>
<trkpt lat="46.77959590" lon="6.65473270"><ele></ele><time>2019-8-11T16:49:16Z</time></trkpt>
<trkpt lat="46.77958350" lon="6.65476670"><ele></ele><time>2019-8-11T16:49:19Z</time></trkpt>
<trkpt lat="46.77956100" lon="6.65482850"><ele></ele><time>2019-8-11T16:49:22Z</time></trkpt>
<trkpt lat="46.77947680" lon="6.65495550"><ele></ele><time>2019-8-11T16:49:25Z</time></trkpt>
<trkpt lat="46.77965640" lon="6.65541890"><ele></ele><time>2019-8-11T16:49:28Z</time></trkpt>
<trkpt lat="46.77965640" lon="6.65541890"><ele></ele><time>2019-8-11T16:49:31Z</time></trkpt>
<trkpt lat="46.78006970" lon="6.65622600"><ele></ele><time>2019-8-11T16:49:34Z</time></trkpt>
<trkpt lat="46.78017240" lon="6.65643580"><ele></ele><time>2019-8-11T16:49:37Z</time></trkpt>
<trkpt lat="46.78020550" lon="6.65650550"><ele></ele><time>2019-8-11T16:49:40Z</time></trkpt>
<trkpt lat="46.78044810" lon="6.65699200"><ele></ele><time>2019-8-11T16:49:43Z</time></trkpt>
<trkpt lat="46.78076890" lon="6.65760790"><ele></ele><time>2019-8-11T16:49:46Z</time></trkpt>
<trkpt lat="46.78094160" lon="6.65793960"><ele></ele><time>2019-8-11T16:49:49Z</time></trkpt>
<trkpt lat="46.78103240" lon="6.65811370"><ele></ele><time>2019-8-11T16:49:52Z</time></trkpt>
<trkpt lat="46.78122640" lon="6.65848630"><ele></ele><time>2019-8-11T16:49:55Z</time></trkpt>
<trkpt lat="46.78185690" lon="6.65969670"><ele></ele><time>2019-8-11T16:49:58Z</time></trkpt>
<trkpt lat="46.78265910" lon="6.66123660"><ele></ele><time>2019-8-11T16:50:1Z</time></trkpt>
<trkpt lat="46.78365380" lon="6.66314630"><ele></ele><time>2019-8-11T16:50:4Z</time></trkpt>
<trkpt lat="46.78373050" lon="6.66329350"><ele></ele><time>2019-8-11T16:50:7Z</time></trkpt>
<trkpt lat="46.78481080" lon="6.66541770"><ele></ele><time>2019-8-11T16:50:10Z</time></trkpt>
<trkpt lat="46.78551350" lon="6.66697180"><ele></ele><time>2019-8-11T16:50:13Z</time></trkpt>
<trkpt lat="46.78563480" lon="6.66729150"><ele></ele><time>2019-8-11T16:50:16Z</time></trkpt>
<trkpt lat="46.78608770" lon="6.66849920"><ele></ele><time>2019-8-11T16:50:19Z</time></trkpt>
<trkpt lat="46.78660380" lon="6.66989580"><ele></ele><time>2019-8-11T16:50:22Z</time></trkpt>
<trkpt lat="46.78668710" lon="6.67015240"><ele></ele><time>2019-8-11T16:50:25Z</time></trkpt>
<trkpt lat="46.78668710" lon="6.67015240"><ele></ele><time>2019-8-11T16:50:28Z</time></trkpt>
<trkpt lat="46.78668710" lon="6.67015240"><ele></ele><time>2019-8-11T16:50:31Z</time></trkpt>
<trkpt lat="46.78670800" lon="6.67020470"><ele></ele><time>2019-8-11T16:50:34Z</time></trkpt>
<trkpt lat="46.78679890" lon="6.67043200"><ele></ele><time>2019-8-11T16:50:37Z</time></trkpt>
<trkpt lat="46.78723860" lon="6.67157300"><ele></ele><time>2019-8-11T16:50:40Z</time></trkpt>
<trkpt lat="46.78745380" lon="6.67208180"><ele></ele><time>2019-8-11T16:50:43Z</time></trkpt>
<trkpt lat="46.78811510" lon="6.67378550"><ele></ele><time>2019-8-11T16:50:46Z</time></trkpt>
<trkpt lat="46.78879610" lon="6.67565160"><ele></ele><time>2019-8-11T16:50:49Z</time></trkpt>
<trkpt lat="46.78935210" lon="6.67741610"><ele></ele><time>2019-8-11T16:50:52Z</time></trkpt>
<trkpt lat="46.78990110" lon="6.67937730"><ele></ele><time>2019-8-11T16:50:55Z</time></trkpt>
<trkpt lat="46.79037070" lon="6.68116460"><ele></ele><time>2019-8-11T16:50:58Z</time></trkpt>
<trkpt lat="46.79113890" lon="6.68404730"><ele></ele><time>2019-8-11T16:51:1Z</time></trkpt>
<trkpt lat="46.79191430" lon="6.68639000"><ele></ele><time>2019-8-11T16:51:4Z</time></trkpt>
<trkpt lat="46.79265670" lon="6.68794270"><ele></ele><time>2019-8-11T16:51:7Z</time></trkpt>
<trkpt lat="46.79332830" lon="6.68923530"><ele></ele><time>2019-8-11T16:51:10Z</time></trkpt>
<trkpt lat="46.79340220" lon="6.68937720"><ele></ele><time>2019-8-11T16:51:13Z</time></trkpt>
<trkpt lat="46.79406080" lon="6.69066490"><ele></ele><time>2019-8-11T16:51:16Z</time></trkpt>
<trkpt lat="46.79417140" lon="6.69088630"><ele></ele><time>2019-8-11T16:51:19Z</time></trkpt>
<trkpt lat="46.79479990" lon="6.69214320"><ele></ele><time>2019-8-11T16:51:22Z</time></trkpt>
<trkpt lat="46.79556830" lon="6.69363400"><ele></ele><time>2019-8-11T16:51:25Z</time></trkpt>
<trkpt lat="46.79563750" lon="6.69376610"><ele></ele><time>2019-8-11T16:51:28Z</time></trkpt>
<trkpt lat="46.79577740" lon="6.69404320"><ele></ele><time>2019-8-11T16:51:31Z</time></trkpt>
<trkpt lat="46.79639360" lon="6.69564400"><ele></ele><time>2019-8-11T16:51:34Z</time></trkpt>
<trkpt lat="46.79731250" lon="6.69810990"><ele></ele><time>2019-8-11T16:51:37Z</time></trkpt>
<trkpt lat="46.79791920" lon="6.69981660"><ele></ele><time>2019-8-11T16:51:40Z</time></trkpt>
<trkpt lat="46.79846730" lon="6.70170180"><ele></ele><time>2019-8-11T16:51:43Z</time></trkpt>
<trkpt lat="46.79865970" lon="6.70240280"><ele></ele><time>2019-8-11T16:51:46Z</time></trkpt>
<trkpt lat="46.79901660" lon="6.70414810"><ele></ele><time>2019-8-11T16:51:49Z</time></trkpt>
<trkpt lat="46.79937320" lon="6.70633410"><ele></ele><time>2019-8-11T16:51:52Z</time></trkpt>
<trkpt lat="46.79958010" lon="6.70760230"><ele></ele><time>2019-8-11T16:51:55Z</time></trkpt>
<trkpt lat="46.79964830" lon="6.70801500"><ele></ele><time>2019-8-11T16:51:58Z</time></trkpt>
<trkpt lat="46.80001210" lon="6.71020480"><ele></ele><time>2019-8-11T16:52:1Z</time></trkpt>
<trkpt lat="46.80043540" lon="6.71275170"><ele></ele><time>2019-8-11T16:52:4Z</time></trkpt>
<trkpt lat="46.80083320" lon="6.71514950"><ele></ele><time>2019-8-11T16:52:7Z</time></trkpt>
<trkpt lat="46.80109150" lon="6.71675390"><ele></ele><time>2019-8-11T16:52:10Z</time></trkpt>
<trkpt lat="46.80129260" lon="6.71801630"><ele></ele><time>2019-8-11T16:52:13Z</time></trkpt>
<trkpt lat="46.80140610" lon="6.71863160"><ele></ele><time>2019-8-11T16:52:16Z</time></trkpt>
<trkpt lat="46.80147010" lon="6.71902180"><ele></ele><time>2019-8-11T16:52:19Z</time></trkpt>
<trkpt lat="46.80171140" lon="6.72049510"><ele></ele><time>2019-8-11T16:52:22Z</time></trkpt>
<trkpt lat="46.80204220" lon="6.72251650"><ele></ele><time>2019-8-11T16:52:25Z</time></trkpt>
<trkpt lat="46.80232150" lon="6.72416430"><ele></ele><time>2019-8-11T16:52:28Z</time></trkpt>
<trkpt lat="46.80235450" lon="6.72436960"><ele></ele><time>2019-8-11T16:52:31Z</time></trkpt>
<trkpt lat="46.80239460" lon="6.72463390"><ele></ele><time>2019-8-11T16:52:34Z</time></trkpt>
<trkpt lat="46.80243890" lon="6.72492670"><ele></ele><time>2019-8-11T16:52:37Z</time></trkpt>
<trkpt lat="46.80244710" lon="6.72504020"><ele></ele><time>2019-8-11T16:52:40Z</time></trkpt>
<trkpt lat="46.80246210" lon="6.72523560"><ele></ele><time>2019-8-11T16:52:43Z</time></trkpt>
<trkpt lat="46.80220780" lon="6.72655050"><ele></ele><time>2019-8-11T16:52:46Z</time></trkpt>
<trkpt lat="46.80192730" lon="6.72719030"><ele></ele><time>2019-8-11T16:52:49Z</time></trkpt>
<trkpt lat="46.80185140" lon="6.72771150"><ele></ele><time>2019-8-11T16:52:52Z</time></trkpt>
<trkpt lat="46.80182170" lon="6.72855200"><ele></ele><time>2019-8-11T16:52:55Z</time></trkpt>
<trkpt lat="46.80175900" lon="6.73057190"><ele></ele><time>2019-8-11T16:52:58Z</time></trkpt>
<trkpt lat="46.80142820" lon="6.73254920"><ele></ele><time>2019-8-11T16:53:1Z</time></trkpt>
<trkpt lat="46.80102830" lon="6.73517780"><ele></ele><time>2019-8-11T16:53:4Z</time></trkpt>
<trkpt lat="46.80107900" lon="6.73676010"><ele></ele><time>2019-8-11T16:53:7Z</time></trkpt>
<trkpt lat="46.80092820" lon="6.73875620"><ele></ele><time>2019-8-11T16:53:10Z</time></trkpt>
<trkpt lat="46.80072370" lon="6.73999510"><ele></ele><time>2019-8-11T16:53:13Z</time></trkpt>
<trkpt lat="46.80043560" lon="6.74172740"><ele></ele><time>2019-8-11T16:53:16Z</time></trkpt>
<trkpt lat="46.80030060" lon="6.74242140"><ele></ele><time>2019-8-11T16:53:19Z</time></trkpt>
<trkpt lat="46.80002450" lon="6.74412310"><ele></ele><time>2019-8-11T16:53:22Z</time></trkpt>
<trkpt lat="46.79979760" lon="6.74485890"><ele></ele><time>2019-8-11T16:53:25Z</time></trkpt>
<trkpt lat="46.79965920" lon="6.74535010"><ele></ele><time>2019-8-11T16:53:28Z</time></trkpt>
<trkpt lat="46.79959270" lon="6.74560140"><ele></ele><time>2019-8-11T16:53:31Z</time></trkpt>
<trkpt lat="46.79948300" lon="6.74594930"><ele></ele><time>2019-8-11T16:53:34Z</time></trkpt>
<trkpt lat="46.79882670" lon="6.74711980"><ele></ele><time>2019-8-11T16:53:37Z</time></trkpt>
<trkpt lat="46.79843820" lon="6.74840030"><ele></ele><time>2019-8-11T16:53:40Z</time></trkpt>
<trkpt lat="46.79772230" lon="6.75137700"><ele></ele><time>2019-8-11T16:53:43Z</time></trkpt>
<trkpt lat="46.79750580" lon="6.75233300"><ele></ele><time>2019-8-11T16:53:46Z</time></trkpt>
<trkpt lat="46.79744070" lon="6.75416970"><ele></ele><time>2019-8-11T16:53:49Z</time></trkpt>
<trkpt lat="46.79765380" lon="6.75551210"><ele></ele><time>2019-8-11T16:53:52Z</time></trkpt>
<trkpt lat="46.79784670" lon="6.75617580"><ele></ele><time>2019-8-11T16:53:55Z</time></trkpt>
<trkpt lat="46.79786360" lon="6.75622070"><ele></ele><time>2019-8-11T16:53:58Z</time></trkpt>
<trkpt lat="46.79824750" lon="6.75721690"><ele></ele><time>2019-8-11T16:54:1Z</time></trkpt>
<trkpt lat="46.79826380" lon="6.75725650"><ele></ele><time>2019-8-11T16:54:4Z</time></trkpt>
<trkpt lat="46.79876530" lon="6.75840030"><ele></ele><time>2019-8-11T16:54:7Z</time></trkpt>
<trkpt lat="46.79932700" lon="6.75961520"><ele></ele><time>2019-8-11T16:54:10Z</time></trkpt>
<trkpt lat="46.80016190" lon="6.76123440"><ele></ele><time>2019-8-11T16:54:13Z</time></trkpt>
<trkpt lat="46.80039740" lon="6.76169130"><ele></ele><time>2019-8-11T16:54:16Z</time></trkpt>
<trkpt lat="46.80115520" lon="6.76292920"><ele></ele><time>2019-8-11T16:54:19Z</time></trkpt>
<trkpt lat="46.80203120" lon="6.76394620"><ele></ele><time>2019-8-11T16:54:22Z</time></trkpt>
<trkpt lat="46.80273550" lon="6.76482010"><ele></ele><time>2019-8-11T16:54:25Z</time></trkpt>
<trkpt lat="46.80278690" lon="6.76489880"><ele></ele><time>2019-8-11T16:54:28Z</time></trkpt>
<trkpt lat="46.80364020" lon="6.76630840"><ele></ele><time>2019-8-11T16:54:31Z</time></trkpt>
<trkpt lat="46.80456410" lon="6.76796250"><ele></ele><time>2019-8-11T16:54:34Z</time></trkpt>
<trkpt lat="46.80532500" lon="6.76920920"><ele></ele><time>2019-8-11T16:54:37Z</time></trkpt>
<trkpt lat="46.80609350" lon="6.77036950"><ele></ele><time>2019-8-11T16:54:40Z</time></trkpt>
<trkpt lat="46.80689980" lon="6.77162180"><ele></ele><time>2019-8-11T16:54:43Z</time></trkpt>
<trkpt lat="46.80730900" lon="6.77231120"><ele></ele><time>2019-8-11T16:54:46Z</time></trkpt>
<trkpt lat="46.80783560" lon="6.77337880"><ele></ele><time>2019-8-11T16:54:49Z</time></trkpt>
<trkpt lat="46.80807010" lon="6.77382680"><ele></ele><time>2019-8-11T16:54:52Z</time></trkpt>
<trkpt lat="46.80853060" lon="6.77469120"><ele></ele><time>2019-8-11T16:54:55Z</time></trkpt>
<trkpt lat="46.80934030" lon="6.77620020"><ele></ele><time>2019-8-11T16:54:58Z</time></trkpt>
<trkpt lat="46.80964890" lon="6.77683070"><ele></ele><time>2019-8-11T16:55:1Z</time></trkpt>
<trkpt lat="46.80999490" lon="6.77813580"><ele></ele><time>2019-8-11T16:55:4Z</time></trkpt>
<trkpt lat="46.81022400" lon="6.77948990"><ele></ele><time>2019-8-11T16:55:7Z</time></trkpt>
<trkpt lat="46.81070700" lon="6.78065510"><ele></ele><time>2019-8-11T16:55:10Z</time></trkpt>
<trkpt lat="46.81134760" lon="6.78173750"><ele></ele><time>2019-8-11T16:55:13Z</time></trkpt>
<trkpt lat="46.81236490" lon="6.78308170"><ele></ele><time>2019-8-11T16:55:16Z</time></trkpt>
<trkpt lat="46.81308650" lon="6.78431330"><ele></ele><time>2019-8-11T16:55:19Z</time></trkpt>
<trkpt lat="46.81365790" lon="6.78569880"><ele></ele><time>2019-8-11T16:55:22Z</time></trkpt>
<trkpt lat="46.81375120" lon="6.78588900"><ele></ele><time>2019-8-11T16:55:25Z</time></trkpt>
<trkpt lat="46.81417540" lon="6.78647320"><ele></ele><time>2019-8-11T16:55:28Z</time></trkpt>
<trkpt lat="46.81430680" lon="6.78688630"><ele></ele><time>2019-8-11T16:55:31Z</time></trkpt>
<trkpt lat="46.81476430" lon="6.78755850"><ele></ele><time>2019-8-11T16:55:34Z</time></trkpt>
<trkpt lat="46.81558800" lon="6.78780270"><ele></ele><time>2019-8-11T16:55:37Z</time></trkpt>
<trkpt lat="46.81587600" lon="6.78810220"><ele></ele><time>2019-8-11T16:55:40Z</time></trkpt>
<trkpt lat="46.81673070" lon="6.78926450"><ele></ele><time>2019-8-11T16:55:43Z</time></trkpt>
<trkpt lat="46.81770000" lon="6.79046420"><ele></ele><time>2019-8-11T16:55:46Z</time></trkpt>
<trkpt lat="46.81774520" lon="6.79051980"><ele></ele><time>2019-8-11T16:55:49Z</time></trkpt>
<trkpt lat="46.81877060" lon="6.79193460"><ele></ele><time>2019-8-11T16:55:52Z</time></trkpt>
<trkpt lat="46.81961240" lon="6.79331950"><ele></ele><time>2019-8-11T16:55:55Z</time></trkpt>
<trkpt lat="46.82011590" lon="6.79469050"><ele></ele><time>2019-8-11T16:55:58Z</time></trkpt>
<trkpt lat="46.82026870" lon="6.79578420"><ele></ele><time>2019-8-11T16:56:1Z</time></trkpt>
<trkpt lat="46.82035130" lon="6.79597780"><ele></ele><time>2019-8-11T16:56:4Z</time></trkpt>
<trkpt lat="46.82044460" lon="6.79607110"><ele></ele><time>2019-8-11T16:56:7Z</time></trkpt>
<trkpt lat="46.82055620" lon="6.79607390"><ele></ele><time>2019-8-11T16:56:10Z</time></trkpt>
<trkpt lat="46.82108780" lon="6.79641320"><ele></ele><time>2019-8-11T16:56:13Z</time></trkpt>
<trkpt lat="46.82139690" lon="6.79656740"><ele></ele><time>2019-8-11T16:56:16Z</time></trkpt>
<trkpt lat="46.82187940" lon="6.79659690"><ele></ele><time>2019-8-11T16:56:19Z</time></trkpt>
<trkpt lat="46.82219870" lon="6.79696840"><ele></ele><time>2019-8-11T16:56:22Z</time></trkpt>
<trkpt lat="46.82222080" lon="6.79700530"><ele></ele><time>2019-8-11T16:56:25Z</time></trkpt>
<trkpt lat="46.82250360" lon="6.79748000"><ele></ele><time>2019-8-11T16:56:28Z</time></trkpt>
<trkpt lat="46.82276140" lon="6.79791960"><ele></ele><time>2019-8-11T16:56:31Z</time></trkpt>
<trkpt lat="46.82300040" lon="6.79832750"><ele></ele><time>2019-8-11T16:56:34Z</time></trkpt>
<trkpt lat="46.82327700" lon="6.79876440"><ele></ele><time>2019-8-11T16:56:37Z</time></trkpt>
<trkpt lat="46.82363100" lon="6.79925220"><ele></ele><time>2019-8-11T16:56:40Z</time></trkpt>
<trkpt lat="46.82366740" lon="6.79930090"><ele></ele><time>2019-8-11T16:56:43Z</time></trkpt>
<trkpt lat="46.82399130" lon="6.79985760"><ele></ele><time>2019-8-11T16:56:46Z</time></trkpt>
<trkpt lat="46.82407240" lon="6.80054600"><ele></ele><time>2019-8-11T16:56:49Z</time></trkpt>
<trkpt lat="46.82425340" lon="6.80098420"><ele></ele><time>2019-8-11T16:56:52Z</time></trkpt>
<trkpt lat="46.82454340" lon="6.80124520"><ele></ele><time>2019-8-11T16:56:55Z</time></trkpt>
<trkpt lat="46.82491270" lon="6.80160080"><ele></ele><time>2019-8-11T16:56:58Z</time></trkpt>
<trkpt lat="46.82524010" lon="6.80184990"><ele></ele><time>2019-8-11T16:57:1Z</time></trkpt>
<trkpt lat="46.82550900" lon="6.80197370"><ele></ele><time>2019-8-11T16:57:4Z</time></trkpt>
<trkpt lat="46.82573040" lon="6.80211660"><ele></ele><time>2019-8-11T16:57:7Z</time></trkpt>
<trkpt lat="46.82574240" lon="6.80283390"><ele></ele><time>2019-8-11T16:57:10Z</time></trkpt>
<trkpt lat="46.82595830" lon="6.80332430"><ele></ele><time>2019-8-11T16:57:13Z</time></trkpt>
<trkpt lat="46.82632190" lon="6.80357680"><ele></ele><time>2019-8-11T16:57:16Z</time></trkpt>
<trkpt lat="46.82645710" lon="6.80389060"><ele></ele><time>2019-8-11T16:57:19Z</time></trkpt>
<trkpt lat="46.82646580" lon="6.80392520"><ele></ele><time>2019-8-11T16:57:22Z</time></trkpt>
<trkpt lat="46.82657340" lon="6.80448450"><ele></ele><time>2019-8-11T16:57:25Z</time></trkpt>
<trkpt lat="46.82666150" lon="6.80495350"><ele></ele><time>2019-8-11T16:57:28Z</time></trkpt>
<trkpt lat="46.82682730" lon="6.80575800"><ele></ele><time>2019-8-11T16:57:31Z</time></trkpt>
<trkpt lat="46.82731730" lon="6.80651260"><ele></ele><time>2019-8-11T16:57:34Z</time></trkpt>
<trkpt lat="46.82774480" lon="6.80697540"><ele></ele><time>2019-8-11T16:57:37Z</time></trkpt>
<trkpt lat="46.82819640" lon="6.80714090"><ele></ele><time>2019-8-11T16:57:40Z</time></trkpt>
<trkpt lat="46.82849500" lon="6.80744640"><ele></ele><time>2019-8-11T16:57:43Z</time></trkpt>
<trkpt lat="46.82870670" lon="6.80779420"><ele></ele><time>2019-8-11T16:57:46Z</time></trkpt>
<trkpt lat="46.82911060" lon="6.80845800"><ele></ele><time>2019-8-11T16:57:49Z</time></trkpt>
<trkpt lat="46.82953250" lon="6.80915100"><ele></ele><time>2019-8-11T16:57:52Z</time></trkpt>
<trkpt lat="46.82965260" lon="6.80935030"><ele></ele><time>2019-8-11T16:57:55Z</time></trkpt>
<trkpt lat="46.82977110" lon="6.80955550"><ele></ele><time>2019-8-11T16:57:58Z</time></trkpt>
<trkpt lat="46.83026800" lon="6.81040090"><ele></ele><time>2019-8-11T16:58:1Z</time></trkpt>
<trkpt lat="46.83030010" lon="6.81093590"><ele></ele><time>2019-8-11T16:58:4Z</time></trkpt>
<trkpt lat="46.83028550" lon="6.81106350"><ele></ele><time>2019-8-11T16:58:7Z</time></trkpt>
<trkpt lat="46.83024720" lon="6.81133160"><ele></ele><time>2019-8-11T16:58:10Z</time></trkpt>
<trkpt lat="46.83041930" lon="6.81204100"><ele></ele><time>2019-8-11T16:58:13Z</time></trkpt>
<trkpt lat="46.83079910" lon="6.81191240"><ele></ele><time>2019-8-11T16:58:16Z</time></trkpt>
<trkpt lat="46.83095770" lon="6.81174190"><ele></ele><time>2019-8-11T16:58:19Z</time></trkpt>
<trkpt lat="46.83112010" lon="6.81157960"><ele></ele><time>2019-8-11T16:58:22Z</time></trkpt>
<trkpt lat="46.83142630" lon="6.81139470"><ele></ele><time>2019-8-11T16:58:25Z</time></trkpt>
<trkpt lat="46.83170530" lon="6.81145550"><ele></ele><time>2019-8-11T16:58:28Z</time></trkpt>
<trkpt lat="46.83207180" lon="6.81166810"><ele></ele><time>2019-8-11T16:58:31Z</time></trkpt>
<trkpt lat="46.83216260" lon="6.81172590"><ele></ele><time>2019-8-11T16:58:34Z</time></trkpt>
<trkpt lat="46.83259460" lon="6.81230300"><ele></ele><time>2019-8-11T16:58:37Z</time></trkpt>
<trkpt lat="46.83273000" lon="6.81251230"><ele></ele><time>2019-8-11T16:58:40Z</time></trkpt>
<trkpt lat="46.83286430" lon="6.81272000"><ele></ele><time>2019-8-11T16:58:43Z</time></trkpt>
<trkpt lat="46.83299260" lon="6.81294530"><ele></ele><time>2019-8-11T16:58:46Z</time></trkpt>
<trkpt lat="46.83308690" lon="6.81362770"><ele></ele><time>2019-8-11T16:58:49Z</time></trkpt>
<trkpt lat="46.83314160" lon="6.81403300"><ele></ele><time>2019-8-11T16:58:52Z</time></trkpt>
<trkpt lat="46.83315040" lon="6.81416450"><ele></ele><time>2019-8-11T16:58:55Z</time></trkpt>
<trkpt lat="46.83304670" lon="6.81460020"><ele></ele><time>2019-8-11T16:58:58Z</time></trkpt>
<trkpt lat="46.83299270" lon="6.81468690"><ele></ele><time>2019-8-11T16:59:1Z</time></trkpt>
<trkpt lat="46.83292430" lon="6.81477260"><ele></ele><time>2019-8-11T16:59:4Z</time></trkpt>
<trkpt lat="46.83278370" lon="6.81494850"><ele></ele><time>2019-8-11T16:59:7Z</time></trkpt>
<trkpt lat="46.83265690" lon="6.81519380"><ele></ele><time>2019-8-11T16:59:10Z</time></trkpt>
<trkpt lat="46.83283970" lon="6.81568750"><ele></ele><time>2019-8-11T16:59:13Z</time></trkpt>
<trkpt lat="46.83292160" lon="6.81578200"><ele></ele><time>2019-8-11T16:59:16Z</time></trkpt>
<trkpt lat="46.83369920" lon="6.81667920"><ele></ele><time>2019-8-11T16:59:19Z</time></trkpt>
<trkpt lat="46.83377800" lon="6.81677030"><ele></ele><time>2019-8-11T16:59:22Z</time></trkpt>
<trkpt lat="46.83400590" lon="6.81703320"><ele></ele><time>2019-8-11T16:59:25Z</time></trkpt>
<trkpt lat="46.83447450" lon="6.81757440"><ele></ele><time>2019-8-11T16:59:28Z</time></trkpt>
<trkpt lat="46.83455200" lon="6.81766540"><ele></ele><time>2019-8-11T16:59:31Z</time></trkpt>
<trkpt lat="46.83509130" lon="6.81829710"><ele></ele><time>2019-8-11T16:59:34Z</time></trkpt>
<trkpt lat="46.83546970" lon="6.81889740"><ele></ele><time>2019-8-11T16:59:37Z</time></trkpt>
<trkpt lat="46.83564220" lon="6.81919920"><ele></ele><time>2019-8-11T16:59:40Z</time></trkpt>
<trkpt lat="46.83597520" lon="6.81978800"><ele></ele><time>2019-8-11T16:59:43Z</time></trkpt>
<trkpt lat="46.83659190" lon="6.82086400"><ele></ele><time>2019-8-11T16:59:46Z</time></trkpt>
<trkpt lat="46.83667750" lon="6.82101540"><ele></ele><time>2019-8-11T16:59:49Z</time></trkpt>
<trkpt lat="46.83680350" lon="6.82122950"><ele></ele><time>2019-8-11T16:59:52Z</time></trkpt>
<trkpt lat="46.83769080" lon="6.82281870"><ele></ele><time>2019-8-11T16:59:55Z</time></trkpt>
<trkpt lat="46.83810020" lon="6.82355310"><ele></ele><time>2019-8-11T16:59:58Z</time></trkpt>
<trkpt lat="46.83812860" lon="6.82360410"><ele></ele><time>2019-8-11T17:0:1Z</time></trkpt>
<trkpt lat="46.83837830" lon="6.82403230"><ele></ele><time>2019-8-11T17:0:4Z</time></trkpt>
<trkpt lat="46.83871780" lon="6.82465380"><ele></ele><time>2019-8-11T17:0:7Z</time></trkpt>
<trkpt lat="46.83929450" lon="6.82572670"><ele></ele><time>2019-8-11T17:0:10Z</time></trkpt>
<trkpt lat="46.83999150" lon="6.82708050"><ele></ele><time>2019-8-11T17:0:13Z</time></trkpt>
<trkpt lat="46.84048890" lon="6.82832470"><ele></ele><time>2019-8-11T17:0:16Z</time></trkpt>
<trkpt lat="46.84101290" lon="6.83004690"><ele></ele><time>2019-8-11T17:0:19Z</time></trkpt>
<trkpt lat="46.84136180" lon="6.83131240"><ele></ele><time>2019-8-11T17:0:22Z</time></trkpt>
<trkpt lat="46.84137690" lon="6.83137420"><ele></ele><time>2019-8-11T17:0:25Z</time></trkpt>
<trkpt lat="46.84162000" lon="6.83275490"><ele></ele><time>2019-8-11T17:0:28Z</time></trkpt>
<trkpt lat="46.84168430" lon="6.83333280"><ele></ele><time>2019-8-11T17:0:31Z</time></trkpt>
<trkpt lat="46.84169050" lon="6.83454650"><ele></ele><time>2019-8-11T17:0:34Z</time></trkpt>
<trkpt lat="46.84167270" lon="6.83501670"><ele></ele><time>2019-8-11T17:0:37Z</time></trkpt>
<trkpt lat="46.84157120" lon="6.83623330"><ele></ele><time>2019-8-11T17:0:40Z</time></trkpt>
<trkpt lat="46.84141780" lon="6.83713960"><ele></ele><time>2019-8-11T17:0:43Z</time></trkpt>
<trkpt lat="46.84140560" lon="6.83718760"><ele></ele><time>2019-8-11T17:0:46Z</time></trkpt>
<trkpt lat="46.84100930" lon="6.83861340"><ele></ele><time>2019-8-11T17:0:49Z</time></trkpt>
<trkpt lat="46.84073330" lon="6.83935990"><ele></ele><time>2019-8-11T17:0:52Z</time></trkpt>
<trkpt lat="46.84019280" lon="6.84060280"><ele></ele><time>2019-8-11T17:0:55Z</time></trkpt>
<trkpt lat="46.83997620" lon="6.84119310"><ele></ele><time>2019-8-11T17:0:58Z</time></trkpt>
<trkpt lat="46.83960930" lon="6.84271220"><ele></ele><time>2019-8-11T17:1:1Z</time></trkpt>
<trkpt lat="46.83948840" lon="6.84423410"><ele></ele><time>2019-8-11T17:1:4Z</time></trkpt>
<trkpt lat="46.83967320" lon="6.84603630"><ele></ele><time>2019-8-11T17:1:7Z</time></trkpt>
<trkpt lat="46.84009900" lon="6.84749850"><ele></ele><time>2019-8-11T17:1:10Z</time></trkpt>
<trkpt lat="46.84015910" lon="6.84765290"><ele></ele><time>2019-8-11T17:1:13Z</time></trkpt>
<trkpt lat="46.84043570" lon="6.84829830"><ele></ele><time>2019-8-11T17:1:16Z</time></trkpt>
<trkpt lat="46.84106600" lon="6.84949250"><ele></ele><time>2019-8-11T17:1:19Z</time></trkpt>
<trkpt lat="46.84176770" lon="6.85083360"><ele></ele><time>2019-8-11T17:1:22Z</time></trkpt>
<trkpt lat="46.84209700" lon="6.85167630"><ele></ele><time>2019-8-11T17:1:25Z</time></trkpt>
<trkpt lat="46.84216860" lon="6.85190710"><ele></ele><time>2019-8-11T17:1:28Z</time></trkpt>
<trkpt lat="46.84225580" lon="6.85219400"><ele></ele><time>2019-8-11T17:1:31Z</time></trkpt>
<trkpt lat="46.84255820" lon="6.85346180"><ele></ele><time>2019-8-11T17:1:34Z</time></trkpt>
<trkpt lat="46.84264540" lon="6.85471780"><ele></ele><time>2019-8-11T17:1:37Z</time></trkpt>
<trkpt lat="46.84258940" lon="6.85492810"><ele></ele><time>2019-8-11T17:1:40Z</time></trkpt>
<trkpt lat="46.84240300" lon="6.85531030"><ele></ele><time>2019-8-11T17:1:43Z</time></trkpt>
<trkpt lat="46.84235070" lon="6.85564330"><ele></ele><time>2019-8-11T17:1:46Z</time></trkpt>
<trkpt lat="46.84232270" lon="6.85589510"><ele></ele><time>2019-8-11T17:1:49Z</time></trkpt>
<trkpt lat="46.84231280" lon="6.85598370"><ele></ele><time>2019-8-11T17:1:52Z</time></trkpt>
<trkpt lat="46.84226990" lon="6.85647730"><ele></ele><time>2019-8-11T17:1:55Z</time></trkpt>
<trkpt lat="46.84248450" lon="6.85630160"><ele></ele><time>2019-8-11T17:1:58Z</time></trkpt>
<trkpt lat="46.84269410" lon="6.85586480"><ele></ele><time>2019-8-11T17:2:1Z</time></trkpt>
<trkpt lat="46.84276340" lon="6.85553310"><ele></ele><time>2019-8-11T17:2:4Z</time></trkpt>
<trkpt lat="46.84275140" lon="6.85528080"><ele></ele><time>2019-8-11T17:2:7Z</time></trkpt>
<trkpt lat="46.84274200" lon="6.85501080"><ele></ele><time>2019-8-11T17:2:10Z</time></trkpt>
<trkpt lat="46.84297170" lon="6.85446650"><ele></ele><time>2019-8-11T17:2:13Z</time></trkpt>
<trkpt lat="46.84389630" lon="6.85361220"><ele></ele><time>2019-8-11T17:2:16Z</time></trkpt>
<trkpt lat="46.84449330" lon="6.85316790"><ele></ele><time>2019-8-11T17:2:19Z</time></trkpt>
<trkpt lat="46.84457480" lon="6.85310650"><ele></ele><time>2019-8-11T17:2:22Z</time></trkpt>
<trkpt lat="46.84499230" lon="6.85278550"><ele></ele><time>2019-8-11T17:2:25Z</time></trkpt>
<trkpt lat="46.84514560" lon="6.85266740"><ele></ele><time>2019-8-11T17:2:28Z</time></trkpt>
<trkpt lat="46.84541300" lon="6.85247260"><ele></ele><time>2019-8-11T17:2:31Z</time></trkpt>
<trkpt lat="46.84568200" lon="6.85235020"><ele></ele><time>2019-8-11T17:2:34Z</time></trkpt>
<trkpt lat="46.84619730" lon="6.85248640"><ele></ele><time>2019-8-11T17:2:37Z</time></trkpt>
<trkpt lat="46.84672860" lon="6.85295370"><ele></ele><time>2019-8-11T17:2:40Z</time></trkpt>
<trkpt lat="46.84709240" lon="6.85334650"><ele></ele><time>2019-8-11T17:2:43Z</time></trkpt>
<trkpt lat="46.84737540" lon="6.85379210"><ele></ele><time>2019-8-11T17:2:46Z</time></trkpt>
<trkpt lat="46.84742980" lon="6.85391300"><ele></ele><time>2019-8-11T17:2:49Z</time></trkpt>
<trkpt lat="46.84774030" lon="6.85505830"><ele></ele><time>2019-8-11T17:2:52Z</time></trkpt>
<trkpt lat="46.84779000" lon="6.85515770"><ele></ele><time>2019-8-11T17:2:55Z</time></trkpt>
<trkpt lat="46.84793030" lon="6.85541180"><ele></ele><time>2019-8-11T17:2:58Z</time></trkpt>
<trkpt lat="46.84832650" lon="6.85590210"><ele></ele><time>2019-8-11T17:3:1Z</time></trkpt>
<trkpt lat="46.84836310" lon="6.85593830"><ele></ele><time>2019-8-11T17:3:4Z</time></trkpt>
<trkpt lat="46.84895120" lon="6.85650860"><ele></ele><time>2019-8-11T17:3:7Z</time></trkpt>
<trkpt lat="46.84931930" lon="6.85692540"><ele></ele><time>2019-8-11T17:3:10Z</time></trkpt>
<trkpt lat="46.84957940" lon="6.85726350"><ele></ele><time>2019-8-11T17:3:13Z</time></trkpt>
<trkpt lat="46.84966900" lon="6.85737970"><ele></ele><time>2019-8-11T17:3:16Z</time></trkpt>
<trkpt lat="46.85041970" lon="6.85834170"><ele></ele><time>2019-8-11T17:3:19Z</time></trkpt>
<trkpt lat="46.85101160" lon="6.85886410"><ele></ele><time>2019-8-11T17:3:22Z</time></trkpt>
<trkpt lat="46.85178200" lon="6.85981640"><ele></ele><time>2019-8-11T17:3:25Z</time></trkpt>
<trkpt lat="46.85260750" lon="6.86095310"><ele></ele><time>2019-8-11T17:3:28Z</time></trkpt>
<trkpt lat="46.85349770" lon="6.86220270"><ele></ele><time>2019-8-11T17:3:31Z</time></trkpt>
<trkpt lat="46.85375040" lon="6.86256970"><ele></ele><time>2019-8-11T17:3:34Z</time></trkpt>
<trkpt lat="46.85425890" lon="6.86391050"><ele></ele><time>2019-8-11T17:3:37Z</time></trkpt>
<trkpt lat="46.85459710" lon="6.86551300"><ele></ele><time>2019-8-11T17:3:40Z</time></trkpt>
<trkpt lat="46.85465800" lon="6.86579890"><ele></ele><time>2019-8-11T17:3:43Z</time></trkpt>
<trkpt lat="46.85519900" lon="6.86831230"><ele></ele><time>2019-8-11T17:3:46Z</time></trkpt>
<trkpt lat="46.85524420" lon="6.86851900"><ele></ele><time>2019-8-11T17:3:49Z</time></trkpt>
<trkpt lat="46.85576060" lon="6.87055390"><ele></ele><time>2019-8-11T17:3:52Z</time></trkpt>
<trkpt lat="46.85653800" lon="6.87226250"><ele></ele><time>2019-8-11T17:3:55Z</time></trkpt>
<trkpt lat="46.85675770" lon="6.87268250"><ele></ele><time>2019-8-11T17:3:58Z</time></trkpt>
<trkpt lat="46.85714450" lon="6.87343210"><ele></ele><time>2019-8-11T17:4:1Z</time></trkpt>
<trkpt lat="46.85765110" lon="6.87485420"><ele></ele><time>2019-8-11T17:4:4Z</time></trkpt>
<trkpt lat="46.85796660" lon="6.87652370"><ele></ele><time>2019-8-11T17:4:7Z</time></trkpt>
<trkpt lat="46.85818280" lon="6.87786390"><ele></ele><time>2019-8-11T17:4:10Z</time></trkpt>
<trkpt lat="46.85845600" lon="6.87974600"><ele></ele><time>2019-8-11T17:4:13Z</time></trkpt>
<trkpt lat="46.85871110" lon="6.88151010"><ele></ele><time>2019-8-11T17:4:16Z</time></trkpt>
<trkpt lat="46.85872160" lon="6.88158320"><ele></ele><time>2019-8-11T17:4:19Z</time></trkpt>
<trkpt lat="46.85875110" lon="6.88178670"><ele></ele><time>2019-8-11T17:4:22Z</time></trkpt>
<trkpt lat="46.85900020" lon="6.88351070"><ele></ele><time>2019-8-11T17:4:25Z</time></trkpt>
<trkpt lat="46.85923770" lon="6.88510780"><ele></ele><time>2019-8-11T17:4:28Z</time></trkpt>
<trkpt lat="46.85942300" lon="6.88636590"><ele></ele><time>2019-8-11T17:4:31Z</time></trkpt>
<trkpt lat="46.85965430" lon="6.88793710"><ele></ele><time>2019-8-11T17:4:34Z</time></trkpt>
<trkpt lat="46.85989400" lon="6.88956540"><ele></ele><time>2019-8-11T17:4:37Z</time></trkpt>
<trkpt lat="46.86018630" lon="6.89155000"><ele></ele><time>2019-8-11T17:4:40Z</time></trkpt>
<trkpt lat="46.86042830" lon="6.89319360"><ele></ele><time>2019-8-11T17:4:43Z</time></trkpt>
<trkpt lat="46.86070580" lon="6.89470850"><ele></ele><time>2019-8-11T17:4:46Z</time></trkpt>
<trkpt lat="46.86111440" lon="6.89619460"><ele></ele><time>2019-8-11T17:4:49Z</time></trkpt>
<trkpt lat="46.86130770" lon="6.89686730"><ele></ele><time>2019-8-11T17:4:52Z</time></trkpt>
<trkpt lat="46.86135780" lon="6.89704160"><ele></ele><time>2019-8-11T17:4:55Z</time></trkpt>
<trkpt lat="46.86140960" lon="6.89722190"><ele></ele><time>2019-8-11T17:4:58Z</time></trkpt>
<trkpt lat="46.86144450" lon="6.89734310"><ele></ele><time>2019-8-11T17:5:1Z</time></trkpt>
<trkpt lat="46.86149510" lon="6.89751950"><ele></ele><time>2019-8-11T17:5:4Z</time></trkpt>
<trkpt lat="46.86173100" lon="6.89834030"><ele></ele><time>2019-8-11T17:5:7Z</time></trkpt>
<trkpt lat="46.86178620" lon="6.89853250"><ele></ele><time>2019-8-11T17:5:10Z</time></trkpt>
<trkpt lat="46.86208250" lon="6.89957830"><ele></ele><time>2019-8-11T17:5:13Z</time></trkpt>
<trkpt lat="46.86240470" lon="6.90072010"><ele></ele><time>2019-8-11T17:5:16Z</time></trkpt>
<trkpt lat="46.86251150" lon="6.90109920"><ele></ele><time>2019-8-11T17:5:19Z</time></trkpt>
<trkpt lat="46.86292060" lon="6.90248110"><ele></ele><time>2019-8-11T17:5:22Z</time></trkpt>
<trkpt lat="46.86297510" lon="6.90267370"><ele></ele><time>2019-8-11T17:5:25Z</time></trkpt>
<trkpt lat="46.86306210" lon="6.90298140"><ele></ele><time>2019-8-11T17:5:28Z</time></trkpt>
<trkpt lat="46.86320000" lon="6.90346860"><ele></ele><time>2019-8-11T17:5:31Z</time></trkpt>
<trkpt lat="46.86323640" lon="6.90359740"><ele></ele><time>2019-8-11T17:5:34Z</time></trkpt>
<trkpt lat="46.86329140" lon="6.90379190"><ele></ele><time>2019-8-11T17:5:37Z</time></trkpt>
<trkpt lat="46.86363860" lon="6.90501880"><ele></ele><time>2019-8-11T17:5:40Z</time></trkpt>
<trkpt lat="46.86371210" lon="6.90527880"><ele></ele><time>2019-8-11T17:5:43Z</time></trkpt>
<trkpt lat="46.86386290" lon="6.90581100"><ele></ele><time>2019-8-11T17:5:46Z</time></trkpt>
<trkpt lat="46.86399400" lon="6.90627420"><ele></ele><time>2019-8-11T17:5:49Z</time></trkpt>
<trkpt lat="46.86408760" lon="6.90660450"><ele></ele><time>2019-8-11T17:5:52Z</time></trkpt>
<trkpt lat="46.86414560" lon="6.90680950"><ele></ele><time>2019-8-11T17:5:55Z</time></trkpt>
<trkpt lat="46.86436220" lon="6.90757470"><ele></ele><time>2019-8-11T17:5:58Z</time></trkpt>
<trkpt lat="46.86473270" lon="6.90888450"><ele></ele><time>2019-8-11T17:6:1Z</time></trkpt>
<trkpt lat="46.86525820" lon="6.91074280"><ele></ele><time>2019-8-11T17:6:4Z</time></trkpt>
<trkpt lat="46.86590510" lon="6.91255600"><ele></ele><time>2019-8-11T17:6:7Z</time></trkpt>
<trkpt lat="46.86674240" lon="6.91478490"><ele></ele><time>2019-8-11T17:6:10Z</time></trkpt>
<trkpt lat="46.86736080" lon="6.91645300"><ele></ele><time>2019-8-11T17:6:13Z</time></trkpt>
<trkpt lat="46.86787580" lon="6.91814670"><ele></ele><time>2019-8-11T17:6:16Z</time></trkpt>
<trkpt lat="46.86794530" lon="6.91836290"><ele></ele><time>2019-8-11T17:6:19Z</time></trkpt>
<trkpt lat="46.86858370" lon="6.92007830"><ele></ele><time>2019-8-11T17:6:22Z</time></trkpt>
<trkpt lat="46.86927250" lon="6.92144350"><ele></ele><time>2019-8-11T17:6:25Z</time></trkpt>
<trkpt lat="46.86934870" lon="6.92165270"><ele></ele><time>2019-8-11T17:6:28Z</time></trkpt>
<trkpt lat="46.86960240" lon="6.92259660"><ele></ele><time>2019-8-11T17:6:31Z</time></trkpt>
<trkpt lat="46.86990010" lon="6.92398850"><ele></ele><time>2019-8-11T17:6:34Z</time></trkpt>
<trkpt lat="46.87003390" lon="6.92446800"><ele></ele><time>2019-8-11T17:6:37Z</time></trkpt>
<trkpt lat="46.87055190" lon="6.92542960"><ele></ele><time>2019-8-11T17:6:40Z</time></trkpt>
<trkpt lat="46.87092060" lon="6.92592360"><ele></ele><time>2019-8-11T17:6:43Z</time></trkpt>
<trkpt lat="46.87096660" lon="6.92601100"><ele></ele><time>2019-8-11T17:6:46Z</time></trkpt>
<trkpt lat="46.87138270" lon="6.92670440"><ele></ele><time>2019-8-11T17:6:49Z</time></trkpt>
<trkpt lat="46.87153220" lon="6.92696600"><ele></ele><time>2019-8-11T17:6:52Z</time></trkpt>
<trkpt lat="46.87164720" lon="6.92716700"><ele></ele><time>2019-8-11T17:6:55Z</time></trkpt>
<trkpt lat="46.87175420" lon="6.92737580"><ele></ele><time>2019-8-11T17:6:58Z</time></trkpt>
<trkpt lat="46.87177340" lon="6.92769220"><ele></ele><time>2019-8-11T17:7:1Z</time></trkpt>
<trkpt lat="46.87179030" lon="6.92797220"><ele></ele><time>2019-8-11T17:7:4Z</time></trkpt>
<trkpt lat="46.87185350" lon="6.92834910"><ele></ele><time>2019-8-11T17:7:7Z</time></trkpt>
<trkpt lat="46.87202840" lon="6.92863610"><ele></ele><time>2019-8-11T17:7:10Z</time></trkpt>
<trkpt lat="46.87223860" lon="6.92884640"><ele></ele><time>2019-8-11T17:7:13Z</time></trkpt>
<trkpt lat="46.87280880" lon="6.92950450"><ele></ele><time>2019-8-11T17:7:16Z</time></trkpt>
<trkpt lat="46.87289550" lon="6.92964030"><ele></ele><time>2019-8-11T17:7:19Z</time></trkpt>
<trkpt lat="46.87296690" lon="6.92980150"><ele></ele><time>2019-8-11T17:7:22Z</time></trkpt>
<trkpt lat="46.87305500" lon="6.93007950"><ele></ele><time>2019-8-11T17:7:25Z</time></trkpt>
<trkpt lat="46.87307670" lon="6.93017710"><ele></ele><time>2019-8-11T17:7:28Z</time></trkpt>
<trkpt lat="46.87305700" lon="6.93080070"><ele></ele><time>2019-8-11T17:7:31Z</time></trkpt>
<trkpt lat="46.87293200" lon="6.93121130"><ele></ele><time>2019-8-11T17:7:34Z</time></trkpt>
<trkpt lat="46.87272060" lon="6.93166050"><ele></ele><time>2019-8-11T17:7:37Z</time></trkpt>
<trkpt lat="46.87241850" lon="6.93221240"><ele></ele><time>2019-8-11T17:7:40Z</time></trkpt>
<trkpt lat="46.87208320" lon="6.93288450"><ele></ele><time>2019-8-11T17:7:43Z</time></trkpt>
<trkpt lat="46.87198220" lon="6.93314240"><ele></ele><time>2019-8-11T17:7:46Z</time></trkpt>
<trkpt lat="46.87179950" lon="6.93371810"><ele></ele><time>2019-8-11T17:7:49Z</time></trkpt>
<trkpt lat="46.87175690" lon="6.93386540"><ele></ele><time>2019-8-11T17:7:52Z</time></trkpt>
<trkpt lat="46.87151020" lon="6.93468350"><ele></ele><time>2019-8-11T17:7:55Z</time></trkpt>
<trkpt lat="46.87092030" lon="6.93657480"><ele></ele><time>2019-8-11T17:7:58Z</time></trkpt>
<trkpt lat="46.87083930" lon="6.93684160"><ele></ele><time>2019-8-11T17:8:1Z</time></trkpt>
<trkpt lat="46.87081480" lon="6.93692220"><ele></ele><time>2019-8-11T17:8:4Z</time></trkpt>
<trkpt lat="46.87061200" lon="6.93812620"><ele></ele><time>2019-8-11T17:8:7Z</time></trkpt>
<trkpt lat="46.87067960" lon="6.93863680"><ele></ele><time>2019-8-11T17:8:10Z</time></trkpt>
<trkpt lat="46.87091510" lon="6.94048470"><ele></ele><time>2019-8-11T17:8:13Z</time></trkpt>
<trkpt lat="46.87099400" lon="6.94182930"><ele></ele><time>2019-8-11T17:8:16Z</time></trkpt>
<trkpt lat="46.87095470" lon="6.94208110"><ele></ele><time>2019-8-11T17:8:19Z</time></trkpt>
<trkpt lat="46.87069650" lon="6.94341180"><ele></ele><time>2019-8-11T17:8:22Z</time></trkpt>
<trkpt lat="46.87068390" lon="6.94359960"><ele></ele><time>2019-8-11T17:8:25Z</time></trkpt>
<trkpt lat="46.87084560" lon="6.94458000"><ele></ele><time>2019-8-11T17:8:28Z</time></trkpt>
<trkpt lat="46.87086920" lon="6.94466390"><ele></ele><time>2019-8-11T17:8:31Z</time></trkpt>
<trkpt lat="46.87103240" lon="6.94516800"><ele></ele><time>2019-8-11T17:8:34Z</time></trkpt>
<trkpt lat="46.87110370" lon="6.94544710"><ele></ele><time>2019-8-11T17:8:37Z</time></trkpt>
<trkpt lat="46.87110780" lon="6.94591070"><ele></ele><time>2019-8-11T17:8:40Z</time></trkpt>
<trkpt lat="46.87102130" lon="6.94666080"><ele></ele><time>2019-8-11T17:8:43Z</time></trkpt>
<trkpt lat="46.87120470" lon="6.94698690"><ele></ele><time>2019-8-11T17:8:46Z</time></trkpt>
<trkpt lat="46.87158730" lon="6.94719830"><ele></ele><time>2019-8-11T17:8:49Z</time></trkpt>
<trkpt lat="46.87184640" lon="6.94778880"><ele></ele><time>2019-8-11T17:8:52Z</time></trkpt>
<trkpt lat="46.87206230" lon="6.94967040"><ele></ele><time>2019-8-11T17:8:55Z</time></trkpt>
<trkpt lat="46.87227430" lon="6.95147360"><ele></ele><time>2019-8-11T17:8:58Z</time></trkpt>
<trkpt lat="46.87281850" lon="6.95281040"><ele></ele><time>2019-8-11T17:9:1Z</time></trkpt>
<trkpt lat="46.87346790" lon="6.95359340"><ele></ele><time>2019-8-11T17:9:4Z</time></trkpt>
<trkpt lat="46.87462200" lon="6.95452460"><ele></ele><time>2019-8-11T17:9:7Z</time></trkpt>
<trkpt lat="46.87481880" lon="6.95470810"><ele></ele><time>2019-8-11T17:9:10Z</time></trkpt>
<trkpt lat="46.87510050" lon="6.95495350"><ele></ele><time>2019-8-11T17:9:13Z</time></trkpt>
<trkpt lat="46.87578400" lon="6.95601450"><ele></ele><time>2019-8-11T17:9:16Z</time></trkpt>
<trkpt lat="46.87620140" lon="6.95730850"><ele></ele><time>2019-8-11T17:9:19Z</time></trkpt>
<trkpt lat="46.87658090" lon="6.95861190"><ele></ele><time>2019-8-11T17:9:22Z</time></trkpt>
<trkpt lat="46.87705810" lon="6.95993900"><ele></ele><time>2019-8-11T17:9:25Z</time></trkpt>
<trkpt lat="46.87728110" lon="6.96151580"><ele></ele><time>2019-8-11T17:9:28Z</time></trkpt>
<trkpt lat="46.87744380" lon="6.96300620"><ele></ele><time>2019-8-11T17:9:31Z</time></trkpt>
<trkpt lat="46.87750030" lon="6.96419800"><ele></ele><time>2019-8-11T17:9:34Z</time></trkpt>
<trkpt lat="46.87759870" lon="6.96573450"><ele></ele><time>2019-8-11T17:9:37Z</time></trkpt>
<trkpt lat="46.87809800" lon="6.96699790"><ele></ele><time>2019-8-11T17:9:40Z</time></trkpt>
<trkpt lat="46.87868580" lon="6.96819680"><ele></ele><time>2019-8-11T17:9:43Z</time></trkpt>
<trkpt lat="46.87941440" lon="6.96894220"><ele></ele><time>2019-8-11T17:9:46Z</time></trkpt>
<trkpt lat="46.87961190" lon="6.96911400"><ele></ele><time>2019-8-11T17:9:49Z</time></trkpt>
<trkpt lat="46.87978770" lon="6.96931100"><ele></ele><time>2019-8-11T17:9:52Z</time></trkpt>
<trkpt lat="46.87987870" lon="6.96943310"><ele></ele><time>2019-8-11T17:9:55Z</time></trkpt>
<trkpt lat="46.88004450" lon="6.96982100"><ele></ele><time>2019-8-11T17:9:58Z</time></trkpt>
<trkpt lat="46.88016590" lon="6.97017040"><ele></ele><time>2019-8-11T17:10:1Z</time></trkpt>
<trkpt lat="46.88058950" lon="6.97087000"><ele></ele><time>2019-8-11T17:10:4Z</time></trkpt>
<trkpt lat="46.88071080" lon="6.97101230"><ele></ele><time>2019-8-11T17:10:7Z</time></trkpt>
<trkpt lat="46.88116800" lon="6.97151690"><ele></ele><time>2019-8-11T17:10:10Z</time></trkpt>
<trkpt lat="46.88145950" lon="6.97182000"><ele></ele><time>2019-8-11T17:10:13Z</time></trkpt>
<trkpt lat="46.88183780" lon="6.97219850"><ele></ele><time>2019-8-11T17:10:16Z</time></trkpt>
<trkpt lat="46.88191120" lon="6.97225030"><ele></ele><time>2019-8-11T17:10:19Z</time></trkpt>
<trkpt lat="46.88205140" lon="6.97239050"><ele></ele><time>2019-8-11T17:10:22Z</time></trkpt>
<trkpt lat="46.88217000" lon="6.97248770"><ele></ele><time>2019-8-11T17:10:25Z</time></trkpt>
<trkpt lat="46.88260640" lon="6.97278550"><ele></ele><time>2019-8-11T17:10:28Z</time></trkpt>
<trkpt lat="46.88272550" lon="6.97287150"><ele></ele><time>2019-8-11T17:10:31Z</time></trkpt>
<trkpt lat="46.88309260" lon="6.97386720"><ele></ele><time>2019-8-11T17:10:34Z</time></trkpt>
<trkpt lat="46.88353760" lon="6.97505310"><ele></ele><time>2019-8-11T17:10:37Z</time></trkpt>
<trkpt lat="46.88397500" lon="6.97612520"><ele></ele><time>2019-8-11T17:10:40Z</time></trkpt>
<trkpt lat="46.88412530" lon="6.97649400"><ele></ele><time>2019-8-11T17:10:43Z</time></trkpt>
<trkpt lat="46.88462580" lon="6.97757300"><ele></ele><time>2019-8-11T17:10:46Z</time></trkpt>
<trkpt lat="46.88526460" lon="6.97863470"><ele></ele><time>2019-8-11T17:10:49Z</time></trkpt>
<trkpt lat="46.88530610" lon="6.97870290"><ele></ele><time>2019-8-11T17:10:52Z</time></trkpt>
<trkpt lat="46.88616210" lon="6.98010770"><ele></ele><time>2019-8-11T17:10:55Z</time></trkpt>
<trkpt lat="46.88702510" lon="6.98151010"><ele></ele><time>2019-8-11T17:10:58Z</time></trkpt>
<trkpt lat="46.88730970" lon="6.98200510"><ele></ele><time>2019-8-11T17:11:1Z</time></trkpt>
<trkpt lat="46.88737390" lon="6.98219780"><ele></ele><time>2019-8-11T17:11:4Z</time></trkpt>
<trkpt lat="46.88756700" lon="6.98254110"><ele></ele><time>2019-8-11T17:11:7Z</time></trkpt>
<trkpt lat="46.88788040" lon="6.98323590"><ele></ele><time>2019-8-11T17:11:10Z</time></trkpt>
<trkpt lat="46.88827720" lon="6.98414500"><ele></ele><time>2019-8-11T17:11:13Z</time></trkpt>
<trkpt lat="46.88834360" lon="6.98431090"><ele></ele><time>2019-8-11T17:11:16Z</time></trkpt>
<trkpt lat="46.88844110" lon="6.98455280"><ele></ele><time>2019-8-11T17:11:19Z</time></trkpt>
<trkpt lat="46.88893720" lon="6.98574050"><ele></ele><time>2019-8-11T17:11:22Z</time></trkpt>
<trkpt lat="46.88947430" lon="6.98670540"><ele></ele><time>2019-8-11T17:11:25Z</time></trkpt>
<trkpt lat="46.88977530" lon="6.98698100"><ele></ele><time>2019-8-11T17:11:28Z</time></trkpt>
<trkpt lat="46.89054210" lon="6.98739610"><ele></ele><time>2019-8-11T17:11:31Z</time></trkpt>
<trkpt lat="46.89162180" lon="6.98781900"><ele></ele><time>2019-8-11T17:11:34Z</time></trkpt>
<trkpt lat="46.89286310" lon="6.98834560"><ele></ele><time>2019-8-11T17:11:37Z</time></trkpt>
<trkpt lat="46.89302230" lon="6.98841780"><ele></ele><time>2019-8-11T17:11:40Z</time></trkpt>
<trkpt lat="46.89420180" lon="6.98894570"><ele></ele><time>2019-8-11T17:11:43Z</time></trkpt>
<trkpt lat="46.89543370" lon="6.98949070"><ele></ele><time>2019-8-11T17:11:46Z</time></trkpt>
<trkpt lat="46.89633760" lon="6.98989830"><ele></ele><time>2019-8-11T17:11:49Z</time></trkpt>
<trkpt lat="46.89695920" lon="6.99018130"><ele></ele><time>2019-8-11T17:11:52Z</time></trkpt>
<trkpt lat="46.89786060" lon="6.99056010"><ele></ele><time>2019-8-11T17:11:55Z</time></trkpt>
<trkpt lat="46.89914500" lon="6.99119890"><ele></ele><time>2019-8-11T17:11:58Z</time></trkpt>
<trkpt lat="46.89985370" lon="6.99172110"><ele></ele><time>2019-8-11T17:12:1Z</time></trkpt>
<trkpt lat="46.90000120" lon="6.99191250"><ele></ele><time>2019-8-11T17:12:4Z</time></trkpt>
<trkpt lat="46.90051890" lon="6.99277880"><ele></ele><time>2019-8-11T17:12:7Z</time></trkpt>
<trkpt lat="46.90057040" lon="6.99286220"><ele></ele><time>2019-8-11T17:12:10Z</time></trkpt>
<trkpt lat="46.90067530" lon="6.99276610"><ele></ele><time>2019-8-11T17:12:13Z</time></trkpt>
<trkpt lat="46.90159580" lon="6.99219570"><ele></ele><time>2019-8-11T17:12:16Z</time></trkpt>
<trkpt lat="46.90267150" lon="6.99206120"><ele></ele><time>2019-8-11T17:12:19Z</time></trkpt>
<trkpt lat="46.90347060" lon="6.99227870"><ele></ele><time>2019-8-11T17:12:22Z</time></trkpt>
<trkpt lat="46.90434850" lon="6.99288020"><ele></ele><time>2019-8-11T17:12:25Z</time></trkpt>
<trkpt lat="46.90523680" lon="6.99374220"><ele></ele><time>2019-8-11T17:12:28Z</time></trkpt>
<trkpt lat="46.90602530" lon="6.99454050"><ele></ele><time>2019-8-11T17:12:31Z</time></trkpt>
<trkpt lat="46.90648940" lon="6.99494580"><ele></ele><time>2019-8-11T17:12:34Z</time></trkpt>
<trkpt lat="46.90712220" lon="6.99523340"><ele></ele><time>2019-8-11T17:12:37Z</time></trkpt>
<trkpt lat="46.90741940" lon="6.99527870"><ele></ele><time>2019-8-11T17:12:40Z</time></trkpt>
<trkpt lat="46.90817120" lon="6.99521510"><ele></ele><time>2019-8-11T17:12:43Z</time></trkpt>
<trkpt lat="46.90862650" lon="6.99495900"><ele></ele><time>2019-8-11T17:12:46Z</time></trkpt>
<trkpt lat="46.90900810" lon="6.99469640"><ele></ele><time>2019-8-11T17:12:49Z</time></trkpt>
<trkpt lat="46.90936350" lon="6.99432530"><ele></ele><time>2019-8-11T17:12:52Z</time></trkpt>
<trkpt lat="46.90966670" lon="6.99393020"><ele></ele><time>2019-8-11T17:12:55Z</time></trkpt>
<trkpt lat="46.90992020" lon="6.99358600"><ele></ele><time>2019-8-11T17:12:58Z</time></trkpt>
<trkpt lat="46.91023200" lon="6.99316630"><ele></ele><time>2019-8-11T17:13:1Z</time></trkpt>
<trkpt lat="46.91052210" lon="6.99282270"><ele></ele><time>2019-8-11T17:13:4Z</time></trkpt>
<trkpt lat="46.91089030" lon="6.99243390"><ele></ele><time>2019-8-11T17:13:7Z</time></trkpt>
<trkpt lat="46.91111210" lon="6.99224140"><ele></ele><time>2019-8-11T17:13:10Z</time></trkpt>
<trkpt lat="46.91122170" lon="6.99214600"><ele></ele><time>2019-8-11T17:13:13Z</time></trkpt>
<trkpt lat="46.91169800" lon="6.99174440"><ele></ele><time>2019-8-11T17:13:16Z</time></trkpt>
<trkpt lat="46.91216950" lon="6.99134590"><ele></ele><time>2019-8-11T17:13:19Z</time></trkpt>
<trkpt lat="46.91256550" lon="6.99101160"><ele></ele><time>2019-8-11T17:13:22Z</time></trkpt>
<trkpt lat="46.91298480" lon="6.99068930"><ele></ele><time>2019-8-11T17:13:25Z</time></trkpt>
<trkpt lat="46.91335640" lon="6.99038520"><ele></ele><time>2019-8-11T17:13:28Z</time></trkpt>
<trkpt lat="46.91375750" lon="6.99006900"><ele></ele><time>2019-8-11T17:13:31Z</time></trkpt>
<trkpt lat="46.91416210" lon="6.98976670"><ele></ele><time>2019-8-11T17:13:34Z</time></trkpt>
<trkpt lat="46.91431200" lon="6.98967200"><ele></ele><time>2019-8-11T17:13:37Z</time></trkpt>
<trkpt lat="46.91480890" lon="6.98940210"><ele></ele><time>2019-8-11T17:13:40Z</time></trkpt>
<trkpt lat="46.91536980" lon="6.98914160"><ele></ele><time>2019-8-11T17:13:43Z</time></trkpt>
<trkpt lat="46.91615000" lon="6.98872470"><ele></ele><time>2019-8-11T17:13:46Z</time></trkpt>
<trkpt lat="46.91700190" lon="6.98819280"><ele></ele><time>2019-8-11T17:13:49Z</time></trkpt>
<trkpt lat="46.91794070" lon="6.98773530"><ele></ele><time>2019-8-11T17:13:52Z</time></trkpt>
<trkpt lat="46.91928830" lon="6.98699400"><ele></ele><time>2019-8-11T17:13:55Z</time></trkpt>
<trkpt lat="46.92013790" lon="6.98613580"><ele></ele><time>2019-8-11T17:13:58Z</time></trkpt>
<trkpt lat="46.92071800" lon="6.98498280"><ele></ele><time>2019-8-11T17:14:1Z</time></trkpt>
<trkpt lat="46.92080300" lon="6.98478450"><ele></ele><time>2019-8-11T17:14:4Z</time></trkpt>
<trkpt lat="46.92130550" lon="6.98309960"><ele></ele><time>2019-8-11T17:14:7Z</time></trkpt>
<trkpt lat="46.92185420" lon="6.98194080"><ele></ele><time>2019-8-11T17:14:10Z</time></trkpt>
<trkpt lat="46.92231760" lon="6.98062380"><ele></ele><time>2019-8-11T17:14:13Z</time></trkpt>
<trkpt lat="46.92248450" lon="6.97986800"><ele></ele><time>2019-8-11T17:14:16Z</time></trkpt>
<trkpt lat="46.92256040" lon="6.97952390"><ele></ele><time>2019-8-11T17:14:19Z</time></trkpt>
<trkpt lat="46.92265820" lon="6.97917700"><ele></ele><time>2019-8-11T17:14:22Z</time></trkpt>
<trkpt lat="46.92304380" lon="6.97856190"><ele></ele><time>2019-8-11T17:14:25Z</time></trkpt>
<trkpt lat="46.92318130" lon="6.97840590"><ele></ele><time>2019-8-11T17:14:28Z</time></trkpt>
<trkpt lat="46.92326170" lon="6.97833060"><ele></ele><time>2019-8-11T17:14:31Z</time></trkpt>
<trkpt lat="46.92350990" lon="6.97810360"><ele></ele><time>2019-8-11T17:14:34Z</time></trkpt>
<trkpt lat="46.92370040" lon="6.97796690"><ele></ele><time>2019-8-11T17:14:37Z</time></trkpt>
<trkpt lat="46.92391540" lon="6.97789800"><ele></ele><time>2019-8-11T17:14:40Z</time></trkpt>
<trkpt lat="46.92403690" lon="6.97790780"><ele></ele><time>2019-8-11T17:14:43Z</time></trkpt>
<trkpt lat="46.92449160" lon="6.97805040"><ele></ele><time>2019-8-11T17:14:46Z</time></trkpt>
<trkpt lat="46.92484430" lon="6.97819140"><ele></ele><time>2019-8-11T17:14:49Z</time></trkpt>
<trkpt lat="46.92496390" lon="6.97823920"><ele></ele><time>2019-8-11T17:14:52Z</time></trkpt>
<trkpt lat="46.92534040" lon="6.97863120"><ele></ele><time>2019-8-11T17:14:55Z</time></trkpt>
<trkpt lat="46.92546420" lon="6.97885620"><ele></ele><time>2019-8-11T17:14:58Z</time></trkpt>
<trkpt lat="46.92608340" lon="6.98005690"><ele></ele><time>2019-8-11T17:15:1Z</time></trkpt>
<trkpt lat="46.92675800" lon="6.98138620"><ele></ele><time>2019-8-11T17:15:4Z</time></trkpt>
<trkpt lat="46.92687420" lon="6.98152010"><ele></ele><time>2019-8-11T17:15:7Z</time></trkpt>
<trkpt lat="46.92711900" lon="6.98135550"><ele></ele><time>2019-8-11T17:15:10Z</time></trkpt>
<trkpt lat="46.92732120" lon="6.98115330"><ele></ele><time>2019-8-11T17:15:13Z</time></trkpt>
<trkpt lat="46.92791910" lon="6.98049720"><ele></ele><time>2019-8-11T17:15:16Z</time></trkpt>
<trkpt lat="46.92885190" lon="6.97918630"><ele></ele><time>2019-8-11T17:15:19Z</time></trkpt>
<trkpt lat="46.92948760" lon="6.97909510"><ele></ele><time>2019-8-11T17:15:22Z</time></trkpt>
<trkpt lat="46.93070460" lon="6.97952030"><ele></ele><time>2019-8-11T17:15:25Z</time></trkpt>
<trkpt lat="46.93110840" lon="6.97953660"><ele></ele><time>2019-8-11T17:15:28Z</time></trkpt>
<trkpt lat="46.93122110" lon="6.97952050"><ele></ele><time>2019-8-11T17:15:31Z</time></trkpt>
<trkpt lat="46.93218830" lon="6.97952930"><ele></ele><time>2019-8-11T17:15:34Z</time></trkpt>
<trkpt lat="46.93328710" lon="6.98002190"><ele></ele><time>2019-8-11T17:15:37Z</time></trkpt>
<trkpt lat="46.93401990" lon="6.98077370"><ele></ele><time>2019-8-11T17:15:40Z</time></trkpt>
<trkpt lat="46.93482680" lon="6.98232080"><ele></ele><time>2019-8-11T17:15:43Z</time></trkpt>
<trkpt lat="46.93541220" lon="6.98345160"><ele></ele><time>2019-8-11T17:15:46Z</time></trkpt>
<trkpt lat="46.93556340" lon="6.98374280"><ele></ele><time>2019-8-11T17:15:49Z</time></trkpt>
<trkpt lat="46.93567720" lon="6.98396180"><ele></ele><time>2019-8-11T17:15:52Z</time></trkpt>
<trkpt lat="46.93640700" lon="6.98535560"><ele></ele><time>2019-8-11T17:15:55Z</time></trkpt>
<trkpt lat="46.93647220" lon="6.98545990"><ele></ele><time>2019-8-11T17:15:58Z</time></trkpt>
<trkpt lat="46.93665760" lon="6.98583430"><ele></ele><time>2019-8-11T17:16:1Z</time></trkpt>
<trkpt lat="46.93671990" lon="6.98596730"><ele></ele><time>2019-8-11T17:16:4Z</time></trkpt>
<trkpt lat="46.93707130" lon="6.98679630"><ele></ele><time>2019-8-11T17:16:7Z</time></trkpt>
<trkpt lat="46.93730210" lon="6.98736180"><ele></ele><time>2019-8-11T17:16:10Z</time></trkpt>
<trkpt lat="46.93733260" lon="6.98743640"><ele></ele><time>2019-8-11T17:16:13Z</time></trkpt>
<trkpt lat="46.93805190" lon="6.98878440"><ele></ele><time>2019-8-11T17:16:16Z</time></trkpt>
<trkpt lat="46.93821060" lon="6.98920420"><ele></ele><time>2019-8-11T17:16:19Z</time></trkpt>
<trkpt lat="46.93873420" lon="6.99096650"><ele></ele><time>2019-8-11T17:16:22Z</time></trkpt>
<trkpt lat="46.93884490" lon="6.99133550"><ele></ele><time>2019-8-11T17:16:25Z</time></trkpt>
<trkpt lat="46.93947630" lon="6.99341620"><ele></ele><time>2019-8-11T17:16:28Z</time></trkpt>
<trkpt lat="46.93997020" lon="6.99518810"><ele></ele><time>2019-8-11T17:16:31Z</time></trkpt>
<trkpt lat="46.94047600" lon="6.99725980"><ele></ele><time>2019-8-11T17:16:34Z</time></trkpt>
<trkpt lat="46.94097640" lon="6.99900500"><ele></ele><time>2019-8-11T17:16:37Z</time></trkpt>
<trkpt lat="46.94181460" lon="7.00079440"><ele></ele><time>2019-8-11T17:16:40Z</time></trkpt>
<trkpt lat="46.94248990" lon="7.00247030"><ele></ele><time>2019-8-11T17:16:43Z</time></trkpt>
<trkpt lat="46.94326850" lon="7.00471740"><ele></ele><time>2019-8-11T17:16:46Z</time></trkpt>
<trkpt lat="46.94400680" lon="7.00645800"><ele></ele><time>2019-8-11T17:16:49Z</time></trkpt>
<trkpt lat="46.94469920" lon="7.00757310"><ele></ele><time>2019-8-11T17:16:52Z</time></trkpt>
<trkpt lat="46.94561660" lon="7.00850000"><ele></ele><time>2019-8-11T17:16:55Z</time></trkpt>
<trkpt lat="46.94577680" lon="7.00875970"><ele></ele><time>2019-8-11T17:16:58Z</time></trkpt>
<trkpt lat="46.94677150" lon="7.01054980"><ele></ele><time>2019-8-11T17:17:1Z</time></trkpt>
<trkpt lat="46.94742510" lon="7.01197660"><ele></ele><time>2019-8-11T17:17:4Z</time></trkpt>
<trkpt lat="46.94804210" lon="7.01363020"><ele></ele><time>2019-8-11T17:17:7Z</time></trkpt>
<trkpt lat="46.94856480" lon="7.01518500"><ele></ele><time>2019-8-11T17:17:10Z</time></trkpt>
<trkpt lat="46.94910030" lon="7.01645400"><ele></ele><time>2019-8-11T17:17:13Z</time></trkpt>
<trkpt lat="46.94934760" lon="7.01691700"><ele></ele><time>2019-8-11T17:17:16Z</time></trkpt>
<trkpt lat="46.95018050" lon="7.01859270"><ele></ele><time>2019-8-11T17:17:19Z</time></trkpt>
<trkpt lat="46.95096890" lon="7.02010930"><ele></ele><time>2019-8-11T17:17:22Z</time></trkpt>
<trkpt lat="46.95101990" lon="7.02017480"><ele></ele><time>2019-8-11T17:17:25Z</time></trkpt>
<trkpt lat="46.95190180" lon="7.02103550"><ele></ele><time>2019-8-11T17:17:28Z</time></trkpt>
<trkpt lat="46.95194810" lon="7.02111420"><ele></ele><time>2019-8-11T17:17:31Z</time></trkpt>
<trkpt lat="46.95215580" lon="7.02151220"><ele></ele><time>2019-8-11T17:17:34Z</time></trkpt>
<trkpt lat="46.95269160" lon="7.02248050"><ele></ele><time>2019-8-11T17:17:37Z</time></trkpt>
<trkpt lat="46.95305590" lon="7.02309610"><ele></ele><time>2019-8-11T17:17:40Z</time></trkpt>
<trkpt lat="46.95305590" lon="7.02309610"><ele></ele><time>2019-8-11T17:17:43Z</time></trkpt>
<trkpt lat="46.95309050" lon="7.02303730"><ele></ele><time>2019-8-11T17:17:46Z</time></trkpt>
<trkpt lat="46.95355530" lon="7.02224810"><ele></ele><time>2019-8-11T17:17:49Z</time></trkpt>
<trkpt lat="46.95442340" lon="7.02076370"><ele></ele><time>2019-8-11T17:17:52Z</time></trkpt>
<trkpt lat="46.95525790" lon="7.01936680"><ele></ele><time>2019-8-11T17:17:55Z</time></trkpt>
<trkpt lat="46.95554850" lon="7.01894080"><ele></ele><time>2019-8-11T17:17:58Z</time></trkpt>
<trkpt lat="46.95612890" lon="7.01813760"><ele></ele><time>2019-8-11T17:18:1Z</time></trkpt>
<trkpt lat="46.95635620" lon="7.01817790"><ele></ele><time>2019-8-11T17:18:4Z</time></trkpt>
<trkpt lat="46.95664710" lon="7.01869530"><ele></ele><time>2019-8-11T17:18:7Z</time></trkpt>
<trkpt lat="46.95674080" lon="7.01886460"><ele></ele><time>2019-8-11T17:18:10Z</time></trkpt>
<trkpt lat="46.95730390" lon="7.02000500"><ele></ele><time>2019-8-11T17:18:13Z</time></trkpt>
<trkpt lat="46.95764310" lon="7.02157640"><ele></ele><time>2019-8-11T17:18:16Z</time></trkpt>
<trkpt lat="46.95782430" lon="7.02244360"><ele></ele><time>2019-8-11T17:18:19Z</time></trkpt>
<trkpt lat="46.95818250" lon="7.02376880"><ele></ele><time>2019-8-11T17:18:22Z</time></trkpt>
<trkpt lat="46.95844310" lon="7.02443470"><ele></ele><time>2019-8-11T17:18:25Z</time></trkpt>
<trkpt lat="46.95889840" lon="7.02552630"><ele></ele><time>2019-8-11T17:18:28Z</time></trkpt>
<trkpt lat="46.95911560" lon="7.02603690"><ele></ele><time>2019-8-11T17:18:31Z</time></trkpt>
<trkpt lat="46.95919970" lon="7.02623440"><ele></ele><time>2019-8-11T17:18:34Z</time></trkpt>
<trkpt lat="46.95943260" lon="7.02678350"><ele></ele><time>2019-8-11T17:18:37Z</time></trkpt>
<trkpt lat="46.95960740" lon="7.02720590"><ele></ele><time>2019-8-11T17:18:40Z</time></trkpt>
<trkpt lat="46.95981250" lon="7.02770150"><ele></ele><time>2019-8-11T17:18:43Z</time></trkpt>
<trkpt lat="46.95992720" lon="7.02797790"><ele></ele><time>2019-8-11T17:18:46Z</time></trkpt>
<trkpt lat="46.96015650" lon="7.02849110"><ele></ele><time>2019-8-11T17:18:49Z</time></trkpt>
<trkpt lat="46.96087600" lon="7.02986990"><ele></ele><time>2019-8-11T17:18:52Z</time></trkpt>
<trkpt lat="46.96187760" lon="7.03163850"><ele></ele><time>2019-8-11T17:18:55Z</time></trkpt>
<trkpt lat="46.96284050" lon="7.03356410"><ele></ele><time>2019-8-11T17:18:58Z</time></trkpt>
<trkpt lat="46.96357150" lon="7.03494130"><ele></ele><time>2019-8-11T17:19:1Z</time></trkpt>
<trkpt lat="46.96366170" lon="7.03509400"><ele></ele><time>2019-8-11T17:19:4Z</time></trkpt>
<trkpt lat="46.96420600" lon="7.03601490"><ele></ele><time>2019-8-11T17:19:7Z</time></trkpt>
<trkpt lat="46.96517480" lon="7.03763620"><ele></ele><time>2019-8-11T17:19:10Z</time></trkpt>
<trkpt lat="46.96629830" lon="7.03950110"><ele></ele><time>2019-8-11T17:19:13Z</time></trkpt>
<trkpt lat="46.96741710" lon="7.04138330"><ele></ele><time>2019-8-11T17:19:16Z</time></trkpt>
<trkpt lat="46.96810540" lon="7.04253790"><ele></ele><time>2019-8-11T17:19:19Z</time></trkpt>
<trkpt lat="46.96869090" lon="7.04357290"><ele></ele><time>2019-8-11T17:19:22Z</time></trkpt>
<trkpt lat="46.96915550" lon="7.04450210"><ele></ele><time>2019-8-11T17:19:25Z</time></trkpt>
<trkpt lat="46.96945400" lon="7.04509910"><ele></ele><time>2019-8-11T17:19:28Z</time></trkpt>
<trkpt lat="46.97018300" lon="7.04653800"><ele></ele><time>2019-8-11T17:19:31Z</time></trkpt>
<trkpt lat="46.97093280" lon="7.04805070"><ele></ele><time>2019-8-11T17:19:34Z</time></trkpt>
<trkpt lat="46.97153030" lon="7.04923920"><ele></ele><time>2019-8-11T17:19:37Z</time></trkpt>
<trkpt lat="46.97209740" lon="7.05036700"><ele></ele><time>2019-8-11T17:19:40Z</time></trkpt>
<trkpt lat="46.97237280" lon="7.05091680"><ele></ele><time>2019-8-11T17:19:43Z</time></trkpt>
<trkpt lat="46.97315360" lon="7.05249040"><ele></ele><time>2019-8-11T17:19:46Z</time></trkpt>
<trkpt lat="46.97390280" lon="7.05382000"><ele></ele><time>2019-8-11T17:19:49Z</time></trkpt>
<trkpt lat="46.97465630" lon="7.05483370"><ele></ele><time>2019-8-11T17:19:52Z</time></trkpt>
<trkpt lat="46.97506470" lon="7.05537470"><ele></ele><time>2019-8-11T17:19:55Z</time></trkpt>
<trkpt lat="46.97577200" lon="7.05629720"><ele></ele><time>2019-8-11T17:19:58Z</time></trkpt>
<trkpt lat="46.97660750" lon="7.05739340"><ele></ele><time>2019-8-11T17:20:1Z</time></trkpt>
<trkpt lat="46.97784500" lon="7.05901720"><ele></ele><time>2019-8-11T17:20:4Z</time></trkpt>
<trkpt lat="46.97891030" lon="7.06041490"><ele></ele><time>2019-8-11T17:20:7Z</time></trkpt>
<trkpt lat="46.98016340" lon="7.06206600"><ele></ele><time>2019-8-11T17:20:10Z</time></trkpt>
<trkpt lat="46.98153210" lon="7.06387190"><ele></ele><time>2019-8-11T17:20:13Z</time></trkpt>
<trkpt lat="46.98267660" lon="7.06525190"><ele></ele><time>2019-8-11T17:20:16Z</time></trkpt>
<trkpt lat="46.98363900" lon="7.06580470"><ele></ele><time>2019-8-11T17:20:19Z</time></trkpt>
<trkpt lat="46.98523990" lon="7.06622400"><ele></ele><time>2019-8-11T17:20:22Z</time></trkpt>
<trkpt lat="46.98674690" lon="7.06661480"><ele></ele><time>2019-8-11T17:20:25Z</time></trkpt>
<trkpt lat="46.98784790" lon="7.06690060"><ele></ele><time>2019-8-11T17:20:28Z</time></trkpt>
<trkpt lat="46.98789400" lon="7.06691250"><ele></ele><time>2019-8-11T17:20:31Z</time></trkpt>
<trkpt lat="46.98803440" lon="7.06694890"><ele></ele><time>2019-8-11T17:20:34Z</time></trkpt>
<trkpt lat="46.98819170" lon="7.06698960"><ele></ele><time>2019-8-11T17:20:37Z</time></trkpt>
<trkpt lat="46.98883150" lon="7.06634130"><ele></ele><time>2019-8-11T17:20:40Z</time></trkpt>
<trkpt lat="46.98964890" lon="7.06545590"><ele></ele><time>2019-8-11T17:20:43Z</time></trkpt>
<trkpt lat="46.98992860" lon="7.06515280"><ele></ele><time>2019-8-11T17:20:46Z</time></trkpt>
<trkpt lat="46.99017720" lon="7.06505450"><ele></ele><time>2019-8-11T17:20:49Z</time></trkpt>
<trkpt lat="46.99119950" lon="7.06433880"><ele></ele><time>2019-8-11T17:20:52Z</time></trkpt>
<trkpt lat="46.99228550" lon="7.06353330"><ele></ele><time>2019-8-11T17:20:55Z</time></trkpt>
<trkpt lat="46.99331670" lon="7.06276860"><ele></ele><time>2019-8-11T17:20:58Z</time></trkpt>
<trkpt lat="46.99455050" lon="7.06185390"><ele></ele><time>2019-8-11T17:21:1Z</time></trkpt>
<trkpt lat="46.99562460" lon="7.06105760"><ele></ele><time>2019-8-11T17:21:4Z</time></trkpt>
<trkpt lat="46.99663920" lon="7.06030560"><ele></ele><time>2019-8-11T17:21:7Z</time></trkpt>
<trkpt lat="46.99755350" lon="7.05962800"><ele></ele><time>2019-8-11T17:21:10Z</time></trkpt>
<trkpt lat="46.99865160" lon="7.05881410"><ele></ele><time>2019-8-11T17:21:13Z</time></trkpt>
<trkpt lat="47.00017250" lon="7.05768680"><ele></ele><time>2019-8-11T17:21:16Z</time></trkpt>
<trkpt lat="47.00031650" lon="7.05758010"><ele></ele><time>2019-8-11T17:21:19Z</time></trkpt>
<trkpt lat="47.00030880" lon="7.05722360"><ele></ele><time>2019-8-11T17:21:22Z</time></trkpt>
<trkpt lat="47.00025590" lon="7.05711330"><ele></ele><time>2019-8-11T17:21:25Z</time></trkpt>
<trkpt lat="46.99975060" lon="7.05608700"><ele></ele><time>2019-8-11T17:21:28Z</time></trkpt>
<trkpt lat="46.99925510" lon="7.05508050"><ele></ele><time>2019-8-11T17:21:31Z</time></trkpt>
<trkpt lat="46.99863680" lon="7.05383330"><ele></ele><time>2019-8-11T17:21:34Z</time></trkpt>
<trkpt lat="46.99841520" lon="7.05336200"><ele></ele><time>2019-8-11T17:21:37Z</time></trkpt>
<trkpt lat="46.99846680" lon="7.05299370"><ele></ele><time>2019-8-11T17:21:40Z</time></trkpt>
<trkpt lat="46.99940810" lon="7.05213430"><ele></ele><time>2019-8-11T17:21:43Z</time></trkpt>
<trkpt lat="47.00031510" lon="7.05129620"><ele></ele><time>2019-8-11T17:21:46Z</time></trkpt>
<trkpt lat="47.00103460" lon="7.05060540"><ele></ele><time>2019-8-11T17:21:49Z</time></trkpt>
<trkpt lat="47.00183090" lon="7.04982610"><ele></ele><time>2019-8-11T17:21:52Z</time></trkpt>
<trkpt lat="47.00283310" lon="7.04898290"><ele></ele><time>2019-8-11T17:21:55Z</time></trkpt>
<trkpt lat="47.00354010" lon="7.04846500"><ele></ele><time>2019-8-11T17:21:58Z</time></trkpt>
<trkpt lat="47.00398470" lon="7.04812960"><ele></ele><time>2019-8-11T17:22:1Z</time></trkpt>
<trkpt lat="47.00407630" lon="7.04805920"><ele></ele><time>2019-8-11T17:22:4Z</time></trkpt>
<trkpt lat="47.00482340" lon="7.04745810"><ele></ele><time>2019-8-11T17:22:7Z</time></trkpt>
<trkpt lat="47.00483320" lon="7.04741910"><ele></ele><time>2019-8-11T17:22:10Z</time></trkpt>
<trkpt lat="47.00588650" lon="7.04695890"><ele></ele><time>2019-8-11T17:22:13Z</time></trkpt>
<trkpt lat="47.00620630" lon="7.04672130"><ele></ele><time>2019-8-11T17:22:16Z</time></trkpt>
<trkpt lat="47.00704390" lon="7.04589290"><ele></ele><time>2019-8-11T17:22:19Z</time></trkpt>
<trkpt lat="47.00776730" lon="7.04519450"><ele></ele><time>2019-8-11T17:22:22Z</time></trkpt>
<trkpt lat="47.00830740" lon="7.04468460"><ele></ele><time>2019-8-11T17:22:25Z</time></trkpt>
<trkpt lat="47.00870070" lon="7.04430990"><ele></ele><time>2019-8-11T17:22:28Z</time></trkpt>
<trkpt lat="47.00907650" lon="7.04399680"><ele></ele><time>2019-8-11T17:22:31Z</time></trkpt>
<trkpt lat="47.00943030" lon="7.04372920"><ele></ele><time>2019-8-11T17:22:34Z</time></trkpt>
<trkpt lat="47.01010210" lon="7.04324420"><ele></ele><time>2019-8-11T17:22:37Z</time></trkpt>
<trkpt lat="47.01058510" lon="7.04285770"><ele></ele><time>2019-8-11T17:22:40Z</time></trkpt>
<trkpt lat="47.01100250" lon="7.04246150"><ele></ele><time>2019-8-11T17:22:43Z</time></trkpt>
<trkpt lat="47.01161300" lon="7.04166900"><ele></ele><time>2019-8-11T17:22:46Z</time></trkpt>
<trkpt lat="47.01216440" lon="7.04088680"><ele></ele><time>2019-8-11T17:22:49Z</time></trkpt>
<trkpt lat="47.01256020" lon="7.04034100"><ele></ele><time>2019-8-11T17:22:52Z</time></trkpt>
<trkpt lat="47.01285190" lon="7.03995380"><ele></ele><time>2019-8-11T17:22:55Z</time></trkpt>
<trkpt lat="47.01289690" lon="7.03957830"><ele></ele><time>2019-8-11T17:22:58Z</time></trkpt>
<trkpt lat="47.01270630" lon="7.03921420"><ele></ele><time>2019-8-11T17:23:1Z</time></trkpt>
<trkpt lat="47.01245600" lon="7.03872760"><ele></ele><time>2019-8-11T17:23:4Z</time></trkpt>
<trkpt lat="47.01244200" lon="7.03834650"><ele></ele><time>2019-8-11T17:23:7Z</time></trkpt>
<trkpt lat="47.01328760" lon="7.03767250"><ele></ele><time>2019-8-11T17:23:10Z</time></trkpt>
<trkpt lat="47.01343540" lon="7.03755730"><ele></ele><time>2019-8-11T17:23:13Z</time></trkpt>
<trkpt lat="47.01458420" lon="7.03664350"><ele></ele><time>2019-8-11T17:23:16Z</time></trkpt>
<trkpt lat="47.01550580" lon="7.03592610"><ele></ele><time>2019-8-11T17:23:19Z</time></trkpt>
<trkpt lat="47.01612160" lon="7.03543260"><ele></ele><time>2019-8-11T17:23:22Z</time></trkpt>
<trkpt lat="47.01634980" lon="7.03555310"><ele></ele><time>2019-8-11T17:23:25Z</time></trkpt>
<trkpt lat="47.01670200" lon="7.03631650"><ele></ele><time>2019-8-11T17:23:28Z</time></trkpt>
<trkpt lat="47.01705700" lon="7.03652770"><ele></ele><time>2019-8-11T17:23:31Z</time></trkpt>
<trkpt lat="47.01823720" lon="7.03645160"><ele></ele><time>2019-8-11T17:23:34Z</time></trkpt>
<trkpt lat="47.01980560" lon="7.03635960"><ele></ele><time>2019-8-11T17:23:37Z</time></trkpt>
<trkpt lat="47.02014070" lon="7.03633550"><ele></ele><time>2019-8-11T17:23:40Z</time></trkpt>
<trkpt lat="47.02027300" lon="7.03633550"><ele></ele><time>2019-8-11T17:23:43Z</time></trkpt>
<trkpt lat="47.02044320" lon="7.03614900"><ele></ele><time>2019-8-11T17:23:46Z</time></trkpt>
<trkpt lat="47.02059300" lon="7.03579500"><ele></ele><time>2019-8-11T17:23:49Z</time></trkpt>
<trkpt lat="47.02071640" lon="7.03554970"><ele></ele><time>2019-8-11T17:23:52Z</time></trkpt>
<trkpt lat="47.02091850" lon="7.03538290"><ele></ele><time>2019-8-11T17:23:55Z</time></trkpt>
<trkpt lat="47.02105140" lon="7.03533180"><ele></ele><time>2019-8-11T17:23:58Z</time></trkpt>
<trkpt lat="47.02117580" lon="7.03527350"><ele></ele><time>2019-8-11T17:24:1Z</time></trkpt>
<trkpt lat="47.02134260" lon="7.03595240"><ele></ele><time>2019-8-11T17:24:4Z</time></trkpt>
<trkpt lat="47.02106160" lon="7.03604160"><ele></ele><time>2019-8-11T17:24:7Z</time></trkpt>
<trkpt lat="47.02092660" lon="7.03544910"><ele></ele><time>2019-8-11T17:24:10Z</time></trkpt>
<trkpt lat="47.02095960" lon="7.03393700"><ele></ele><time>2019-8-11T17:24:13Z</time></trkpt>
<trkpt lat="47.02096940" lon="7.03182340"><ele></ele><time>2019-8-11T17:24:16Z</time></trkpt>
<trkpt lat="47.02091500" lon="7.02997250"><ele></ele><time>2019-8-11T17:24:19Z</time></trkpt>
<trkpt lat="47.02089780" lon="7.02973300"><ele></ele><time>2019-8-11T17:24:22Z</time></trkpt>
<trkpt lat="47.02088150" lon="7.02950650"><ele></ele><time>2019-8-11T17:24:25Z</time></trkpt>
<trkpt lat="47.02107320" lon="7.02923690"><ele></ele><time>2019-8-11T17:24:28Z</time></trkpt>
<trkpt lat="47.02133900" lon="7.02902230"><ele></ele><time>2019-8-11T17:24:31Z</time></trkpt>
<trkpt lat="47.02167700" lon="7.02893560"><ele></ele><time>2019-8-11T17:24:34Z</time></trkpt>
<trkpt lat="47.02186040" lon="7.02875480"><ele></ele><time>2019-8-11T17:24:37Z</time></trkpt>
<trkpt lat="47.02235670" lon="7.02809510"><ele></ele><time>2019-8-11T17:24:40Z</time></trkpt>
<trkpt lat="47.02261720" lon="7.02756510"><ele></ele><time>2019-8-11T17:24:43Z</time></trkpt>
<trkpt lat="47.02266450" lon="7.02695300"><ele></ele><time>2019-8-11T17:24:46Z</time></trkpt>
<trkpt lat="47.02266450" lon="7.02647540"><ele></ele><time>2019-8-11T17:24:49Z</time></trkpt>
<trkpt lat="47.02284920" lon="7.02606460"><ele></ele><time>2019-8-11T17:24:52Z</time></trkpt>
<trkpt lat="47.02308260" lon="7.02607710"><ele></ele><time>2019-8-11T17:24:55Z</time></trkpt>
<trkpt lat="47.02313770" lon="7.02610090"><ele></ele><time>2019-8-11T17:24:58Z</time></trkpt>
<trkpt lat="47.02343270" lon="7.02631050"><ele></ele><time>2019-8-11T17:25:1Z</time></trkpt>
<trkpt lat="47.02377150" lon="7.02657380"><ele></ele><time>2019-8-11T17:25:4Z</time></trkpt>
<trkpt lat="47.02388390" lon="7.02658800"><ele></ele><time>2019-8-11T17:25:7Z</time></trkpt>
<trkpt lat="47.02405320" lon="7.02650600"><ele></ele><time>2019-8-11T17:25:10Z</time></trkpt>
<trkpt lat="47.02434750" lon="7.02616960"><ele></ele><time>2019-8-11T17:25:13Z</time></trkpt>
<trkpt lat="47.02463650" lon="7.02564220"><ele></ele><time>2019-8-11T17:25:16Z</time></trkpt>
<trkpt lat="47.02486270" lon="7.02500590"><ele></ele><time>2019-8-11T17:25:19Z</time></trkpt>
<trkpt lat="47.02500370" lon="7.02458130"><ele></ele><time>2019-8-11T17:25:22Z</time></trkpt>
<trkpt lat="47.02509610" lon="7.02428060"><ele></ele><time>2019-8-11T17:25:25Z</time></trkpt>
<trkpt lat="47.02521010" lon="7.02388170"><ele></ele><time>2019-8-11T17:25:28Z</time></trkpt>
<trkpt lat="47.02526600" lon="7.02368380"><ele></ele><time>2019-8-11T17:25:31Z</time></trkpt>
<trkpt lat="47.02547020" lon="7.02301550"><ele></ele><time>2019-8-11T17:25:34Z</time></trkpt>
<trkpt lat="47.02506450" lon="7.02279110"><ele></ele><time>2019-8-11T17:25:37Z</time></trkpt>
<trkpt lat="47.02510820" lon="7.02284100"><ele></ele><time>2019-8-11T17:25:40Z</time></trkpt>
<trkpt lat="47.02505920" lon="7.02278420"><ele></ele><time>2019-8-11T17:25:43Z</time></trkpt>
<trkpt lat="47.02505920" lon="7.02278420"><ele></ele><time>2019-8-11T17:25:46Z</time></trkpt>
<trkpt lat="47.02559330" lon="7.02266870"><ele></ele><time>2019-8-11T17:25:49Z</time></trkpt>
</trkseg></trk></gpx>